<?xml version="1.0" encoding="UTF-8" standalone="no" ?>
<gpx xmlns="http://www.topografix.com/GPX/1/1" xmlns:xsi="http://www.w3.org/2001/XMLSchema-instance" xsi:schemaLocation="http://www.topografix.com/GPX/1/1 http://www.topografix.com/GPX/1/1/gpx.xsd" version="1.1" creator="VisuGPX - https://www.visugpx.com">
  <metadata>
    <name>64 - RAQUETTES - Bielle - Du Benou à la cabane de la Herrère et retour.</name>
    <desc><![CDATA[soleil, vent et températures glaciales]]></desc>
  </metadata>
  <wpt lat="43.04555" lon="-0.46786">
    <ele>1072.708496</ele>
    <name><![CDATA[002]]></name>
    <desc><![CDATA[12-FEV-12 13:28:03]]></desc>
  </wpt>
  <trk>
    <name><![CDATA[ACTIVE LOG 002]]></name>
    <trkseg>
      <trkpt lat="43.06474" lon="-0.47087">
        <ele>877.340576</ele>
        <time>2012-02-12T09:18:17Z</time>
      </trkpt>
      <trkpt lat="43.06474" lon="-0.47087">
        <ele>878.301758</ele>
        <time>2012-02-12T09:18:23Z</time>
      </trkpt>
      <trkpt lat="43.06475" lon="-0.47084">
        <ele>877.821045</ele>
        <time>2012-02-12T09:18:44Z</time>
      </trkpt>
      <trkpt lat="43.06476" lon="-0.4708">
        <ele>878.782471</ele>
        <time>2012-02-12T09:18:48Z</time>
      </trkpt>
      <trkpt lat="43.06486" lon="-0.47067">
        <ele>876.859863</ele>
        <time>2012-02-12T09:19:01Z</time>
      </trkpt>
      <trkpt lat="43.06482" lon="-0.47043">
        <ele>875.898193</ele>
        <time>2012-02-12T09:19:18Z</time>
      </trkpt>
      <trkpt lat="43.06484" lon="-0.4702">
        <ele>874.937012</ele>
        <time>2012-02-12T09:19:39Z</time>
      </trkpt>
      <trkpt lat="43.06485" lon="-0.47013">
        <ele>875.41748</ele>
        <time>2012-02-12T09:20:00Z</time>
      </trkpt>
      <trkpt lat="43.06488" lon="-0.46984">
        <ele>875.41748</ele>
        <time>2012-02-12T09:20:19Z</time>
      </trkpt>
      <trkpt lat="43.06489" lon="-0.46957">
        <ele>876.37915</ele>
        <time>2012-02-12T09:20:37Z</time>
      </trkpt>
      <trkpt lat="43.06488" lon="-0.46927">
        <ele>876.37915</ele>
        <time>2012-02-12T09:20:57Z</time>
      </trkpt>
      <trkpt lat="43.06489" lon="-0.46901">
        <ele>875.898193</ele>
        <time>2012-02-12T09:21:16Z</time>
      </trkpt>
      <trkpt lat="43.06491" lon="-0.46867">
        <ele>875.41748</ele>
        <time>2012-02-12T09:21:38Z</time>
      </trkpt>
      <trkpt lat="43.06501" lon="-0.46841">
        <ele>876.859863</ele>
        <time>2012-02-12T09:21:59Z</time>
      </trkpt>
      <trkpt lat="43.06509" lon="-0.46818">
        <ele>878.782471</ele>
        <time>2012-02-12T09:22:16Z</time>
      </trkpt>
      <trkpt lat="43.0651" lon="-0.46793">
        <ele>879.743652</ele>
        <time>2012-02-12T09:22:35Z</time>
      </trkpt>
      <trkpt lat="43.06511" lon="-0.46791">
        <ele>879.743652</ele>
        <time>2012-02-12T09:22:37Z</time>
      </trkpt>
      <trkpt lat="43.06517" lon="-0.46788">
        <ele>877.821045</ele>
        <time>2012-02-12T09:22:44Z</time>
      </trkpt>
      <trkpt lat="43.06519" lon="-0.46783">
        <ele>878.301758</ele>
        <time>2012-02-12T09:22:48Z</time>
      </trkpt>
      <trkpt lat="43.06522" lon="-0.46751">
        <ele>877.821045</ele>
        <time>2012-02-12T09:23:09Z</time>
      </trkpt>
      <trkpt lat="43.06524" lon="-0.46719">
        <ele>878.301758</ele>
        <time>2012-02-12T09:23:30Z</time>
      </trkpt>
      <trkpt lat="43.06524" lon="-0.4669">
        <ele>878.301758</ele>
        <time>2012-02-12T09:23:49Z</time>
      </trkpt>
      <trkpt lat="43.06525" lon="-0.46662">
        <ele>879.262939</ele>
        <time>2012-02-12T09:24:07Z</time>
      </trkpt>
      <trkpt lat="43.06527" lon="-0.46634">
        <ele>880.705078</ele>
        <time>2012-02-12T09:24:26Z</time>
      </trkpt>
      <trkpt lat="43.06528" lon="-0.46606">
        <ele>881.66626</ele>
        <time>2012-02-12T09:24:45Z</time>
      </trkpt>
      <trkpt lat="43.06529" lon="-0.46571">
        <ele>882.627686</ele>
        <time>2012-02-12T09:25:08Z</time>
      </trkpt>
      <trkpt lat="43.06526" lon="-0.46543">
        <ele>882.146973</ele>
        <time>2012-02-12T09:25:27Z</time>
      </trkpt>
      <trkpt lat="43.06523" lon="-0.4653">
        <ele>885.031006</ele>
        <time>2012-02-12T09:25:37Z</time>
      </trkpt>
      <trkpt lat="43.06517" lon="-0.46499">
        <ele>885.992188</ele>
        <time>2012-02-12T09:25:58Z</time>
      </trkpt>
      <trkpt lat="43.06497" lon="-0.46489">
        <ele>885.511475</ele>
        <time>2012-02-12T09:26:18Z</time>
      </trkpt>
      <trkpt lat="43.06474" lon="-0.46487">
        <ele>885.992188</ele>
        <time>2012-02-12T09:26:39Z</time>
      </trkpt>
      <trkpt lat="43.06448" lon="-0.46489">
        <ele>885.511475</ele>
        <time>2012-02-12T09:27:02Z</time>
      </trkpt>
      <trkpt lat="43.0643" lon="-0.46497">
        <ele>885.511475</ele>
        <time>2012-02-12T09:27:20Z</time>
      </trkpt>
      <trkpt lat="43.06408" lon="-0.4651">
        <ele>886.4729</ele>
        <time>2012-02-12T09:27:41Z</time>
      </trkpt>
      <trkpt lat="43.06385" lon="-0.46521">
        <ele>887.434082</ele>
        <time>2012-02-12T09:28:03Z</time>
      </trkpt>
      <trkpt lat="43.0636" lon="-0.46527">
        <ele>885.511475</ele>
        <time>2012-02-12T09:28:25Z</time>
      </trkpt>
      <trkpt lat="43.06333" lon="-0.46534">
        <ele>884.550293</ele>
        <time>2012-02-12T09:28:49Z</time>
      </trkpt>
      <trkpt lat="43.06311" lon="-0.46544">
        <ele>884.06958</ele>
        <time>2012-02-12T09:29:11Z</time>
      </trkpt>
      <trkpt lat="43.06285" lon="-0.46557">
        <ele>885.511475</ele>
        <time>2012-02-12T09:29:35Z</time>
      </trkpt>
      <trkpt lat="43.06266" lon="-0.46571">
        <ele>886.4729</ele>
        <time>2012-02-12T09:29:55Z</time>
      </trkpt>
      <trkpt lat="43.06245" lon="-0.46587">
        <ele>885.511475</ele>
        <time>2012-02-12T09:30:16Z</time>
      </trkpt>
      <trkpt lat="43.06221" lon="-0.46595">
        <ele>885.511475</ele>
        <time>2012-02-12T09:30:38Z</time>
      </trkpt>
      <trkpt lat="43.06199" lon="-0.46606">
        <ele>886.4729</ele>
        <time>2012-02-12T09:30:59Z</time>
      </trkpt>
      <trkpt lat="43.06175" lon="-0.46611">
        <ele>888.395508</ele>
        <time>2012-02-12T09:31:22Z</time>
      </trkpt>
      <trkpt lat="43.06154" lon="-0.46609">
        <ele>887.434082</ele>
        <time>2012-02-12T09:31:40Z</time>
      </trkpt>
      <trkpt lat="43.06133" lon="-0.46602">
        <ele>889.356689</ele>
        <time>2012-02-12T09:32:00Z</time>
      </trkpt>
      <trkpt lat="43.0612" lon="-0.46591">
        <ele>889.837402</ele>
        <time>2012-02-12T09:32:17Z</time>
      </trkpt>
      <trkpt lat="43.06104" lon="-0.4658">
        <ele>890.798584</ele>
        <time>2012-02-12T09:32:34Z</time>
      </trkpt>
      <trkpt lat="43.06084" lon="-0.46569">
        <ele>891.279297</ele>
        <time>2012-02-12T09:32:54Z</time>
      </trkpt>
      <trkpt lat="43.06075" lon="-0.46565">
        <ele>894.163574</ele>
        <time>2012-02-12T09:33:03Z</time>
      </trkpt>
      <trkpt lat="43.06071" lon="-0.46559">
        <ele>894.163574</ele>
        <time>2012-02-12T09:33:22Z</time>
      </trkpt>
      <trkpt lat="43.0606" lon="-0.46558">
        <ele>896.566895</ele>
        <time>2012-02-12T09:33:57Z</time>
      </trkpt>
      <trkpt lat="43.06053" lon="-0.46559">
        <ele>898.008789</ele>
        <time>2012-02-12T09:34:13Z</time>
      </trkpt>
      <trkpt lat="43.06045" lon="-0.46556">
        <ele>898.969971</ele>
        <time>2012-02-12T09:34:47Z</time>
      </trkpt>
      <trkpt lat="43.06017" lon="-0.46555">
        <ele>898.008789</ele>
        <time>2012-02-12T09:35:10Z</time>
      </trkpt>
      <trkpt lat="43.05994" lon="-0.46542">
        <ele>899.450684</ele>
        <time>2012-02-12T09:35:29Z</time>
      </trkpt>
      <trkpt lat="43.05973" lon="-0.46526">
        <ele>898.489258</ele>
        <time>2012-02-12T09:35:49Z</time>
      </trkpt>
      <trkpt lat="43.05958" lon="-0.46512">
        <ele>895.605469</ele>
        <time>2012-02-12T09:36:03Z</time>
      </trkpt>
      <trkpt lat="43.05951" lon="-0.46503">
        <ele>894.163574</ele>
        <time>2012-02-12T09:36:10Z</time>
      </trkpt>
      <trkpt lat="43.05938" lon="-0.46479">
        <ele>892.240967</ele>
        <time>2012-02-12T09:36:28Z</time>
      </trkpt>
      <trkpt lat="43.0593" lon="-0.46462">
        <ele>888.876221</ele>
        <time>2012-02-12T09:36:39Z</time>
      </trkpt>
      <trkpt lat="43.05921" lon="-0.46442">
        <ele>885.031006</ele>
        <time>2012-02-12T09:36:54Z</time>
      </trkpt>
      <trkpt lat="43.0592" lon="-0.46441">
        <ele>885.031006</ele>
        <time>2012-02-12T09:36:55Z</time>
      </trkpt>
      <trkpt lat="43.05918" lon="-0.46437">
        <ele>883.588867</ele>
        <time>2012-02-12T09:36:58Z</time>
      </trkpt>
      <trkpt lat="43.05909" lon="-0.46417">
        <ele>882.146973</ele>
        <time>2012-02-12T09:37:16Z</time>
      </trkpt>
      <trkpt lat="43.05904" lon="-0.46407">
        <ele>881.66626</ele>
        <time>2012-02-12T09:37:32Z</time>
      </trkpt>
      <trkpt lat="43.05902" lon="-0.46404">
        <ele>881.66626</ele>
        <time>2012-02-12T09:38:04Z</time>
      </trkpt>
      <trkpt lat="43.05896" lon="-0.46393">
        <ele>880.705078</ele>
        <time>2012-02-12T09:38:18Z</time>
      </trkpt>
      <trkpt lat="43.0588" lon="-0.46364">
        <ele>879.262939</ele>
        <time>2012-02-12T09:38:38Z</time>
      </trkpt>
      <trkpt lat="43.05868" lon="-0.46336">
        <ele>875.898193</ele>
        <time>2012-02-12T09:38:56Z</time>
      </trkpt>
      <trkpt lat="43.05865" lon="-0.46328">
        <ele>873.014404</ele>
        <time>2012-02-12T09:39:01Z</time>
      </trkpt>
      <trkpt lat="43.05864" lon="-0.46327">
        <ele>873.495117</ele>
        <time>2012-02-12T09:39:02Z</time>
      </trkpt>
      <trkpt lat="43.05856" lon="-0.46319">
        <ele>873.014404</ele>
        <time>2012-02-12T09:39:13Z</time>
      </trkpt>
      <trkpt lat="43.05841" lon="-0.46325">
        <ele>874.456299</ele>
        <time>2012-02-12T09:39:31Z</time>
      </trkpt>
      <trkpt lat="43.05827" lon="-0.46332">
        <ele>877.821045</ele>
        <time>2012-02-12T09:39:47Z</time>
      </trkpt>
      <trkpt lat="43.05807" lon="-0.46339">
        <ele>880.224365</ele>
        <time>2012-02-12T09:40:06Z</time>
      </trkpt>
      <trkpt lat="43.05794" lon="-0.46344">
        <ele>883.108154</ele>
        <time>2012-02-12T09:40:23Z</time>
      </trkpt>
      <trkpt lat="43.05778" lon="-0.46356">
        <ele>885.031006</ele>
        <time>2012-02-12T09:40:41Z</time>
      </trkpt>
      <trkpt lat="43.0576" lon="-0.46366">
        <ele>886.4729</ele>
        <time>2012-02-12T09:41:02Z</time>
      </trkpt>
      <trkpt lat="43.05737" lon="-0.46371">
        <ele>887.914795</ele>
        <time>2012-02-12T09:41:21Z</time>
      </trkpt>
      <trkpt lat="43.05721" lon="-0.46371">
        <ele>889.356689</ele>
        <time>2012-02-12T09:41:39Z</time>
      </trkpt>
      <trkpt lat="43.05708" lon="-0.46374">
        <ele>890.798584</ele>
        <time>2012-02-12T09:41:52Z</time>
      </trkpt>
      <trkpt lat="43.05685" lon="-0.46382">
        <ele>892.240967</ele>
        <time>2012-02-12T09:42:13Z</time>
      </trkpt>
      <trkpt lat="43.05668" lon="-0.4639">
        <ele>894.644043</ele>
        <time>2012-02-12T09:42:30Z</time>
      </trkpt>
      <trkpt lat="43.05648" lon="-0.46404">
        <ele>896.086182</ele>
        <time>2012-02-12T09:42:52Z</time>
      </trkpt>
      <trkpt lat="43.0563" lon="-0.46421">
        <ele>899.450684</ele>
        <time>2012-02-12T09:43:13Z</time>
      </trkpt>
      <trkpt lat="43.05615" lon="-0.46438">
        <ele>901.373291</ele>
        <time>2012-02-12T09:43:32Z</time>
      </trkpt>
      <trkpt lat="43.05598" lon="-0.46452">
        <ele>902.334473</ele>
        <time>2012-02-12T09:43:52Z</time>
      </trkpt>
      <trkpt lat="43.0558" lon="-0.46466">
        <ele>902.334473</ele>
        <time>2012-02-12T09:44:12Z</time>
      </trkpt>
      <trkpt lat="43.05562" lon="-0.46474">
        <ele>902.815186</ele>
        <time>2012-02-12T09:44:30Z</time>
      </trkpt>
      <trkpt lat="43.05541" lon="-0.46479">
        <ele>903.295898</ele>
        <time>2012-02-12T09:44:50Z</time>
      </trkpt>
      <trkpt lat="43.05518" lon="-0.46484">
        <ele>903.776611</ele>
        <time>2012-02-12T09:45:10Z</time>
      </trkpt>
      <trkpt lat="43.05499" lon="-0.4649">
        <ele>905.699219</ele>
        <time>2012-02-12T09:45:30Z</time>
      </trkpt>
      <trkpt lat="43.05483" lon="-0.46499">
        <ele>909.063965</ele>
        <time>2012-02-12T09:45:47Z</time>
      </trkpt>
      <trkpt lat="43.05467" lon="-0.46513">
        <ele>911.467285</ele>
        <time>2012-02-12T09:46:07Z</time>
      </trkpt>
      <trkpt lat="43.05453" lon="-0.46525">
        <ele>913.870361</ele>
        <time>2012-02-12T09:46:26Z</time>
      </trkpt>
      <trkpt lat="43.05436" lon="-0.4654">
        <ele>915.3125</ele>
        <time>2012-02-12T09:46:48Z</time>
      </trkpt>
      <trkpt lat="43.05431" lon="-0.46543">
        <ele>915.793213</ele>
        <time>2012-02-12T09:47:04Z</time>
      </trkpt>
      <trkpt lat="43.05422" lon="-0.46544">
        <ele>915.793213</ele>
        <time>2012-02-12T09:47:22Z</time>
      </trkpt>
      <trkpt lat="43.05412" lon="-0.46552">
        <ele>916.754395</ele>
        <time>2012-02-12T09:47:39Z</time>
      </trkpt>
      <trkpt lat="43.05409" lon="-0.46551">
        <ele>917.235107</ele>
        <time>2012-02-12T09:47:56Z</time>
      </trkpt>
      <trkpt lat="43.05401" lon="-0.46551">
        <ele>917.235107</ele>
        <time>2012-02-12T09:48:11Z</time>
      </trkpt>
      <trkpt lat="43.05402" lon="-0.46552">
        <ele>916.754395</ele>
        <time>2012-02-12T09:48:42Z</time>
      </trkpt>
      <trkpt lat="43.05403" lon="-0.46553">
        <ele>915.793213</ele>
        <time>2012-02-12T09:49:11Z</time>
      </trkpt>
      <trkpt lat="43.05395" lon="-0.46549">
        <ele>916.273682</ele>
        <time>2012-02-12T09:49:23Z</time>
      </trkpt>
      <trkpt lat="43.05378" lon="-0.46549">
        <ele>917.715576</ele>
        <time>2012-02-12T09:49:43Z</time>
      </trkpt>
      <trkpt lat="43.05365" lon="-0.46546">
        <ele>918.196289</ele>
        <time>2012-02-12T09:49:58Z</time>
      </trkpt>
      <trkpt lat="43.05345" lon="-0.46544">
        <ele>919.157715</ele>
        <time>2012-02-12T09:50:19Z</time>
      </trkpt>
      <trkpt lat="43.05326" lon="-0.46541">
        <ele>920.118896</ele>
        <time>2012-02-12T09:50:38Z</time>
      </trkpt>
      <trkpt lat="43.05307" lon="-0.46536">
        <ele>922.041504</ele>
        <time>2012-02-12T09:50:59Z</time>
      </trkpt>
      <trkpt lat="43.05287" lon="-0.46535">
        <ele>923.483643</ele>
        <time>2012-02-12T09:51:18Z</time>
      </trkpt>
      <trkpt lat="43.05266" lon="-0.46532">
        <ele>925.886963</ele>
        <time>2012-02-12T09:51:39Z</time>
      </trkpt>
      <trkpt lat="43.05249" lon="-0.4653">
        <ele>928.290283</ele>
        <time>2012-02-12T09:51:57Z</time>
      </trkpt>
      <trkpt lat="43.05233" lon="-0.46523">
        <ele>930.212891</ele>
        <time>2012-02-12T09:52:15Z</time>
      </trkpt>
      <trkpt lat="43.05218" lon="-0.46517">
        <ele>933.09668</ele>
        <time>2012-02-12T09:52:34Z</time>
      </trkpt>
      <trkpt lat="43.05206" lon="-0.46513">
        <ele>936.461426</ele>
        <time>2012-02-12T09:52:49Z</time>
      </trkpt>
      <trkpt lat="43.0519" lon="-0.46508">
        <ele>938.864746</ele>
        <time>2012-02-12T09:53:08Z</time>
      </trkpt>
      <trkpt lat="43.05181" lon="-0.4651">
        <ele>940.306885</ele>
        <time>2012-02-12T09:53:25Z</time>
      </trkpt>
      <trkpt lat="43.05177" lon="-0.4651">
        <ele>940.306885</ele>
        <time>2012-02-12T09:53:48Z</time>
      </trkpt>
      <trkpt lat="43.05173" lon="-0.46528">
        <ele>941.748779</ele>
        <time>2012-02-12T09:54:05Z</time>
      </trkpt>
      <trkpt lat="43.05182" lon="-0.46547">
        <ele>943.190674</ele>
        <time>2012-02-12T09:54:21Z</time>
      </trkpt>
      <trkpt lat="43.05192" lon="-0.46571">
        <ele>945.113281</ele>
        <time>2012-02-12T09:54:40Z</time>
      </trkpt>
      <trkpt lat="43.05205" lon="-0.46594">
        <ele>947.035889</ele>
        <time>2012-02-12T09:55:03Z</time>
      </trkpt>
      <trkpt lat="43.05214" lon="-0.46612">
        <ele>949.919922</ele>
        <time>2012-02-12T09:55:24Z</time>
      </trkpt>
      <trkpt lat="43.0522" lon="-0.46629">
        <ele>951.361816</ele>
        <time>2012-02-12T09:55:41Z</time>
      </trkpt>
      <trkpt lat="43.05228" lon="-0.46646">
        <ele>953.284424</ele>
        <time>2012-02-12T09:55:57Z</time>
      </trkpt>
      <trkpt lat="43.05243" lon="-0.46657">
        <ele>955.687744</ele>
        <time>2012-02-12T09:56:17Z</time>
      </trkpt>
      <trkpt lat="43.05255" lon="-0.46664">
        <ele>957.129883</ele>
        <time>2012-02-12T09:56:31Z</time>
      </trkpt>
      <trkpt lat="43.05265" lon="-0.46677">
        <ele>960.013672</ele>
        <time>2012-02-12T09:56:50Z</time>
      </trkpt>
      <trkpt lat="43.05272" lon="-0.46696">
        <ele>961.936523</ele>
        <time>2012-02-12T09:57:10Z</time>
      </trkpt>
      <trkpt lat="43.05277" lon="-0.46719">
        <ele>963.858887</ele>
        <time>2012-02-12T09:57:30Z</time>
      </trkpt>
      <trkpt lat="43.05278" lon="-0.46736">
        <ele>964.3396</ele>
        <time>2012-02-12T09:57:49Z</time>
      </trkpt>
      <trkpt lat="43.05273" lon="-0.46741">
        <ele>965.301025</ele>
        <time>2012-02-12T09:58:19Z</time>
      </trkpt>
      <trkpt lat="43.05271" lon="-0.46755">
        <ele>967.704102</ele>
        <time>2012-02-12T09:58:33Z</time>
      </trkpt>
      <trkpt lat="43.05272" lon="-0.46756">
        <ele>967.704102</ele>
        <time>2012-02-12T09:58:34Z</time>
      </trkpt>
      <trkpt lat="43.0527" lon="-0.4678">
        <ele>970.107422</ele>
        <time>2012-02-12T09:58:54Z</time>
      </trkpt>
      <trkpt lat="43.05266" lon="-0.46807">
        <ele>972.510986</ele>
        <time>2012-02-12T09:59:17Z</time>
      </trkpt>
      <trkpt lat="43.05267" lon="-0.46834">
        <ele>974.433594</ele>
        <time>2012-02-12T09:59:37Z</time>
      </trkpt>
      <trkpt lat="43.05271" lon="-0.46862">
        <ele>976.836914</ele>
        <time>2012-02-12T09:59:59Z</time>
      </trkpt>
      <trkpt lat="43.05278" lon="-0.46891">
        <ele>979.23999</ele>
        <time>2012-02-12T10:00:21Z</time>
      </trkpt>
      <trkpt lat="43.05283" lon="-0.46912">
        <ele>981.162842</ele>
        <time>2012-02-12T10:00:41Z</time>
      </trkpt>
      <trkpt lat="43.05287" lon="-0.46935">
        <ele>982.604736</ele>
        <time>2012-02-12T10:01:01Z</time>
      </trkpt>
      <trkpt lat="43.05292" lon="-0.46956">
        <ele>983.085205</ele>
        <time>2012-02-12T10:01:19Z</time>
      </trkpt>
      <trkpt lat="43.05301" lon="-0.46981">
        <ele>985.488525</ele>
        <time>2012-02-12T10:01:41Z</time>
      </trkpt>
      <trkpt lat="43.0531" lon="-0.46999">
        <ele>985.969238</ele>
        <time>2012-02-12T10:01:58Z</time>
      </trkpt>
      <trkpt lat="43.05311" lon="-0.47002">
        <ele>987.891846</ele>
        <time>2012-02-12T10:02:01Z</time>
      </trkpt>
      <trkpt lat="43.05318" lon="-0.47015">
        <ele>988.853516</ele>
        <time>2012-02-12T10:02:15Z</time>
      </trkpt>
      <trkpt lat="43.05329" lon="-0.47025">
        <ele>989.814697</ele>
        <time>2012-02-12T10:02:32Z</time>
      </trkpt>
      <trkpt lat="43.05344" lon="-0.47036">
        <ele>991.737305</ele>
        <time>2012-02-12T10:02:51Z</time>
      </trkpt>
      <trkpt lat="43.05361" lon="-0.47049">
        <ele>994.140625</ele>
        <time>2012-02-12T10:03:13Z</time>
      </trkpt>
      <trkpt lat="43.0537" lon="-0.4706">
        <ele>995.58252</ele>
        <time>2012-02-12T10:03:29Z</time>
      </trkpt>
      <trkpt lat="43.05383" lon="-0.47075">
        <ele>997.505127</ele>
        <time>2012-02-12T10:03:49Z</time>
      </trkpt>
      <trkpt lat="43.05393" lon="-0.47088">
        <ele>999.427734</ele>
        <time>2012-02-12T10:04:06Z</time>
      </trkpt>
      <trkpt lat="43.05412" lon="-0.47106">
        <ele>1000.869629</ele>
        <time>2012-02-12T10:04:31Z</time>
      </trkpt>
      <trkpt lat="43.05425" lon="-0.47123">
        <ele>1001.831055</ele>
        <time>2012-02-12T10:04:51Z</time>
      </trkpt>
      <trkpt lat="43.05429" lon="-0.47141">
        <ele>1002.311523</ele>
        <time>2012-02-12T10:05:08Z</time>
      </trkpt>
      <trkpt lat="43.0543" lon="-0.47145">
        <ele>1002.792236</ele>
        <time>2012-02-12T10:05:21Z</time>
      </trkpt>
      <trkpt lat="43.05429" lon="-0.47146">
        <ele>1003.272949</ele>
        <time>2012-02-12T10:05:40Z</time>
      </trkpt>
      <trkpt lat="43.05418" lon="-0.47152">
        <ele>1004.715088</ele>
        <time>2012-02-12T10:05:58Z</time>
      </trkpt>
      <trkpt lat="43.05417" lon="-0.4715">
        <ele>1005.195801</ele>
        <time>2012-02-12T10:06:17Z</time>
      </trkpt>
      <trkpt lat="43.0541" lon="-0.47135">
        <ele>1006.156982</ele>
        <time>2012-02-12T10:06:34Z</time>
      </trkpt>
      <trkpt lat="43.05407" lon="-0.4713">
        <ele>1007.118408</ele>
        <time>2012-02-12T10:06:39Z</time>
      </trkpt>
      <trkpt lat="43.05398" lon="-0.47114">
        <ele>1008.560303</ele>
        <time>2012-02-12T10:06:56Z</time>
      </trkpt>
      <trkpt lat="43.05381" lon="-0.471">
        <ele>1009.521729</ele>
        <time>2012-02-12T10:07:16Z</time>
      </trkpt>
      <trkpt lat="43.05365" lon="-0.47088">
        <ele>1010.002197</ele>
        <time>2012-02-12T10:07:36Z</time>
      </trkpt>
      <trkpt lat="43.05348" lon="-0.47076">
        <ele>1010.963623</ele>
        <time>2012-02-12T10:07:58Z</time>
      </trkpt>
      <trkpt lat="43.05331" lon="-0.47059">
        <ele>1011.444336</ele>
        <time>2012-02-12T10:08:17Z</time>
      </trkpt>
      <trkpt lat="43.05315" lon="-0.47054">
        <ele>1013.847412</ele>
        <time>2012-02-12T10:08:35Z</time>
      </trkpt>
      <trkpt lat="43.05294" lon="-0.47052">
        <ele>1015.770264</ele>
        <time>2012-02-12T10:08:56Z</time>
      </trkpt>
      <trkpt lat="43.05275" lon="-0.47046">
        <ele>1018.17334</ele>
        <time>2012-02-12T10:09:16Z</time>
      </trkpt>
      <trkpt lat="43.0526" lon="-0.47034">
        <ele>1018.654053</ele>
        <time>2012-02-12T10:09:33Z</time>
      </trkpt>
      <trkpt lat="43.05257" lon="-0.47029">
        <ele>1018.17334</ele>
        <time>2012-02-12T10:09:37Z</time>
      </trkpt>
      <trkpt lat="43.0525" lon="-0.47001">
        <ele>1020.096191</ele>
        <time>2012-02-12T10:09:58Z</time>
      </trkpt>
      <trkpt lat="43.05244" lon="-0.46973">
        <ele>1021.057617</ele>
        <time>2012-02-12T10:10:20Z</time>
      </trkpt>
      <trkpt lat="43.05235" lon="-0.46951">
        <ele>1021.538086</ele>
        <time>2012-02-12T10:10:40Z</time>
      </trkpt>
      <trkpt lat="43.05226" lon="-0.46932">
        <ele>1021.538086</ele>
        <time>2012-02-12T10:10:57Z</time>
      </trkpt>
      <trkpt lat="43.05215" lon="-0.46906">
        <ele>1022.499512</ele>
        <time>2012-02-12T10:11:19Z</time>
      </trkpt>
      <trkpt lat="43.05202" lon="-0.46883">
        <ele>1023.460938</ele>
        <time>2012-02-12T10:11:40Z</time>
      </trkpt>
      <trkpt lat="43.05192" lon="-0.46861">
        <ele>1024.902832</ele>
        <time>2012-02-12T10:11:58Z</time>
      </trkpt>
      <trkpt lat="43.05188" lon="-0.46838">
        <ele>1025.864014</ele>
        <time>2012-02-12T10:12:16Z</time>
      </trkpt>
      <trkpt lat="43.05181" lon="-0.46813">
        <ele>1026.344727</ele>
        <time>2012-02-12T10:12:35Z</time>
      </trkpt>
      <trkpt lat="43.05169" lon="-0.46786">
        <ele>1026.825439</ele>
        <time>2012-02-12T10:12:57Z</time>
      </trkpt>
      <trkpt lat="43.05156" lon="-0.4677">
        <ele>1026.825439</ele>
        <time>2012-02-12T10:13:15Z</time>
      </trkpt>
      <trkpt lat="43.05143" lon="-0.46747">
        <ele>1028.267334</ele>
        <time>2012-02-12T10:13:37Z</time>
      </trkpt>
      <trkpt lat="43.05133" lon="-0.46728">
        <ele>1029.228516</ele>
        <time>2012-02-12T10:13:56Z</time>
      </trkpt>
      <trkpt lat="43.05129" lon="-0.46722">
        <ele>1029.709229</ele>
        <time>2012-02-12T10:14:02Z</time>
      </trkpt>
      <trkpt lat="43.05115" lon="-0.46705">
        <ele>1031.151367</ele>
        <time>2012-02-12T10:14:22Z</time>
      </trkpt>
      <trkpt lat="43.05103" lon="-0.4669">
        <ele>1032.593262</ele>
        <time>2012-02-12T10:14:38Z</time>
      </trkpt>
      <trkpt lat="43.0509" lon="-0.46673">
        <ele>1034.035156</ele>
        <time>2012-02-12T10:14:57Z</time>
      </trkpt>
      <trkpt lat="43.05076" lon="-0.46663">
        <ele>1034.996582</ele>
        <time>2012-02-12T10:15:14Z</time>
      </trkpt>
      <trkpt lat="43.05063" lon="-0.46665">
        <ele>1036.438721</ele>
        <time>2012-02-12T10:15:31Z</time>
      </trkpt>
      <trkpt lat="43.05049" lon="-0.4668">
        <ele>1038.842041</ele>
        <time>2012-02-12T10:15:51Z</time>
      </trkpt>
      <trkpt lat="43.05032" lon="-0.46695">
        <ele>1041.245117</ele>
        <time>2012-02-12T10:16:13Z</time>
      </trkpt>
      <trkpt lat="43.05022" lon="-0.46706">
        <ele>1042.206543</ele>
        <time>2012-02-12T10:16:30Z</time>
      </trkpt>
      <trkpt lat="43.05005" lon="-0.46717">
        <ele>1042.206543</ele>
        <time>2012-02-12T10:16:50Z</time>
      </trkpt>
      <trkpt lat="43.04989" lon="-0.46725">
        <ele>1045.090332</ele>
        <time>2012-02-12T10:17:08Z</time>
      </trkpt>
      <trkpt lat="43.0498" lon="-0.46728">
        <ele>1046.532471</ele>
        <time>2012-02-12T10:17:27Z</time>
      </trkpt>
      <trkpt lat="43.04971" lon="-0.4673">
        <ele>1046.532471</ele>
        <time>2012-02-12T10:17:44Z</time>
      </trkpt>
      <trkpt lat="43.04954" lon="-0.46734">
        <ele>1047.974365</ele>
        <time>2012-02-12T10:18:03Z</time>
      </trkpt>
      <trkpt lat="43.04953" lon="-0.46734">
        <ele>1047.974365</ele>
        <time>2012-02-12T10:18:04Z</time>
      </trkpt>
      <trkpt lat="43.04932" lon="-0.46744">
        <ele>1049.896973</ele>
        <time>2012-02-12T10:18:26Z</time>
      </trkpt>
      <trkpt lat="43.04918" lon="-0.46753">
        <ele>1051.338867</ele>
        <time>2012-02-12T10:18:43Z</time>
      </trkpt>
      <trkpt lat="43.04902" lon="-0.46768">
        <ele>1053.261719</ele>
        <time>2012-02-12T10:19:04Z</time>
      </trkpt>
      <trkpt lat="43.04887" lon="-0.46782">
        <ele>1055.665039</ele>
        <time>2012-02-12T10:19:24Z</time>
      </trkpt>
      <trkpt lat="43.04871" lon="-0.46794">
        <ele>1057.587646</ele>
        <time>2012-02-12T10:19:44Z</time>
      </trkpt>
      <trkpt lat="43.04854" lon="-0.46806">
        <ele>1059.990723</ele>
        <time>2012-02-12T10:20:07Z</time>
      </trkpt>
      <trkpt lat="43.0484" lon="-0.46816">
        <ele>1061.913574</ele>
        <time>2012-02-12T10:20:26Z</time>
      </trkpt>
      <trkpt lat="43.04821" lon="-0.46826">
        <ele>1064.31665</ele>
        <time>2012-02-12T10:20:47Z</time>
      </trkpt>
      <trkpt lat="43.048" lon="-0.46829">
        <ele>1064.31665</ele>
        <time>2012-02-12T10:21:08Z</time>
      </trkpt>
      <trkpt lat="43.04782" lon="-0.46828">
        <ele>1065.758789</ele>
        <time>2012-02-12T10:21:28Z</time>
      </trkpt>
      <trkpt lat="43.04764" lon="-0.46825">
        <ele>1066.239258</ele>
        <time>2012-02-12T10:21:48Z</time>
      </trkpt>
      <trkpt lat="43.04749" lon="-0.46817">
        <ele>1069.123535</ele>
        <time>2012-02-12T10:22:06Z</time>
      </trkpt>
      <trkpt lat="43.04735" lon="-0.46809">
        <ele>1070.084717</ele>
        <time>2012-02-12T10:22:22Z</time>
      </trkpt>
      <trkpt lat="43.04721" lon="-0.46799">
        <ele>1071.526611</ele>
        <time>2012-02-12T10:22:38Z</time>
      </trkpt>
      <trkpt lat="43.04709" lon="-0.46787">
        <ele>1072.96875</ele>
        <time>2012-02-12T10:22:54Z</time>
      </trkpt>
      <trkpt lat="43.04695" lon="-0.46777">
        <ele>1074.410645</ele>
        <time>2012-02-12T10:23:12Z</time>
      </trkpt>
      <trkpt lat="43.04678" lon="-0.46765">
        <ele>1078.255859</ele>
        <time>2012-02-12T10:23:32Z</time>
      </trkpt>
      <trkpt lat="43.0467" lon="-0.46763">
        <ele>1079.217041</ele>
        <time>2012-02-12T10:23:42Z</time>
      </trkpt>
      <trkpt lat="43.04654" lon="-0.4676">
        <ele>1081.139893</ele>
        <time>2012-02-12T10:24:02Z</time>
      </trkpt>
      <trkpt lat="43.04638" lon="-0.46762">
        <ele>1083.062256</ele>
        <time>2012-02-12T10:24:20Z</time>
      </trkpt>
      <trkpt lat="43.04628" lon="-0.4677">
        <ele>1084.023926</ele>
        <time>2012-02-12T10:24:32Z</time>
      </trkpt>
      <trkpt lat="43.04613" lon="-0.46787">
        <ele>1085.46582</ele>
        <time>2012-02-12T10:24:52Z</time>
      </trkpt>
      <trkpt lat="43.04611" lon="-0.46788">
        <ele>1084.023926</ele>
        <time>2012-02-12T10:24:55Z</time>
      </trkpt>
      <trkpt lat="43.04595" lon="-0.46792">
        <ele>1086.427246</ele>
        <time>2012-02-12T10:25:12Z</time>
      </trkpt>
      <trkpt lat="43.04591" lon="-0.4679">
        <ele>1086.427246</ele>
        <time>2012-02-12T10:25:16Z</time>
      </trkpt>
      <trkpt lat="43.04575" lon="-0.46788">
        <ele>1088.349854</ele>
        <time>2012-02-12T10:25:34Z</time>
      </trkpt>
      <trkpt lat="43.04559" lon="-0.4679">
        <ele>1089.311035</ele>
        <time>2012-02-12T10:25:54Z</time>
      </trkpt>
      <trkpt lat="43.04547" lon="-0.46803">
        <ele>1090.272461</ele>
        <time>2012-02-12T10:26:12Z</time>
      </trkpt>
      <trkpt lat="43.04541" lon="-0.4683">
        <ele>1092.195068</ele>
        <time>2012-02-12T10:26:33Z</time>
      </trkpt>
      <trkpt lat="43.0454" lon="-0.46837">
        <ele>1092.675781</ele>
        <time>2012-02-12T10:26:38Z</time>
      </trkpt>
      <trkpt lat="43.04537" lon="-0.46856">
        <ele>1092.675781</ele>
        <time>2012-02-12T10:26:58Z</time>
      </trkpt>
      <trkpt lat="43.04531" lon="-0.46868">
        <ele>1092.675781</ele>
        <time>2012-02-12T10:27:25Z</time>
      </trkpt>
      <trkpt lat="43.04529" lon="-0.46868">
        <ele>1093.636963</ele>
        <time>2012-02-12T10:27:54Z</time>
      </trkpt>
      <trkpt lat="43.0453" lon="-0.46871">
        <ele>1094.598145</ele>
        <time>2012-02-12T10:28:23Z</time>
      </trkpt>
      <trkpt lat="43.0453" lon="-0.46874">
        <ele>1093.15625</ele>
        <time>2012-02-12T10:28:59Z</time>
      </trkpt>
      <trkpt lat="43.04531" lon="-0.46875">
        <ele>1093.636963</ele>
        <time>2012-02-12T10:29:30Z</time>
      </trkpt>
      <trkpt lat="43.0453" lon="-0.46883">
        <ele>1094.598145</ele>
        <time>2012-02-12T10:29:59Z</time>
      </trkpt>
      <trkpt lat="43.04523" lon="-0.46902">
        <ele>1095.55957</ele>
        <time>2012-02-12T10:30:17Z</time>
      </trkpt>
      <trkpt lat="43.04513" lon="-0.46916">
        <ele>1097.001465</ele>
        <time>2012-02-12T10:30:35Z</time>
      </trkpt>
      <trkpt lat="43.04501" lon="-0.46935">
        <ele>1097.962891</ele>
        <time>2012-02-12T10:30:55Z</time>
      </trkpt>
      <trkpt lat="43.04497" lon="-0.46961">
        <ele>1099.404785</ele>
        <time>2012-02-12T10:31:16Z</time>
      </trkpt>
      <trkpt lat="43.04496" lon="-0.46984">
        <ele>1100.846924</ele>
        <time>2012-02-12T10:31:33Z</time>
      </trkpt>
      <trkpt lat="43.04494" lon="-0.47008">
        <ele>1102.769531</ele>
        <time>2012-02-12T10:31:52Z</time>
      </trkpt>
      <trkpt lat="43.04484" lon="-0.47031">
        <ele>1104.21167</ele>
        <time>2012-02-12T10:32:13Z</time>
      </trkpt>
      <trkpt lat="43.04473" lon="-0.47054">
        <ele>1105.172852</ele>
        <time>2012-02-12T10:32:35Z</time>
      </trkpt>
      <trkpt lat="43.04467" lon="-0.47077">
        <ele>1106.614746</ele>
        <time>2012-02-12T10:32:53Z</time>
      </trkpt>
      <trkpt lat="43.04467" lon="-0.47105">
        <ele>1106.614746</ele>
        <time>2012-02-12T10:33:14Z</time>
      </trkpt>
      <trkpt lat="43.04473" lon="-0.4713">
        <ele>1108.056885</ele>
        <time>2012-02-12T10:33:35Z</time>
      </trkpt>
      <trkpt lat="43.04482" lon="-0.4715">
        <ele>1109.018066</ele>
        <time>2012-02-12T10:33:54Z</time>
      </trkpt>
      <trkpt lat="43.04494" lon="-0.47164">
        <ele>1110.459961</ele>
        <time>2012-02-12T10:34:11Z</time>
      </trkpt>
      <trkpt lat="43.04499" lon="-0.47172">
        <ele>1110.940674</ele>
        <time>2012-02-12T10:34:19Z</time>
      </trkpt>
      <trkpt lat="43.04507" lon="-0.47194">
        <ele>1111.421387</ele>
        <time>2012-02-12T10:34:37Z</time>
      </trkpt>
      <trkpt lat="43.04503" lon="-0.47214">
        <ele>1113.343994</ele>
        <time>2012-02-12T10:34:56Z</time>
      </trkpt>
      <trkpt lat="43.04491" lon="-0.4723">
        <ele>1114.785889</ele>
        <time>2012-02-12T10:35:16Z</time>
      </trkpt>
      <trkpt lat="43.04486" lon="-0.47233">
        <ele>1115.266602</ele>
        <time>2012-02-12T10:35:21Z</time>
      </trkpt>
      <trkpt lat="43.04467" lon="-0.47247">
        <ele>1116.228027</ele>
        <time>2012-02-12T10:35:44Z</time>
      </trkpt>
      <trkpt lat="43.04461" lon="-0.47262">
        <ele>1118.631348</ele>
        <time>2012-02-12T10:35:59Z</time>
      </trkpt>
      <trkpt lat="43.04448" lon="-0.4728">
        <ele>1119.592773</ele>
        <time>2012-02-12T10:36:18Z</time>
      </trkpt>
      <trkpt lat="43.0444" lon="-0.47298">
        <ele>1121.99585</ele>
        <time>2012-02-12T10:36:37Z</time>
      </trkpt>
      <trkpt lat="43.04433" lon="-0.47306">
        <ele>1122.957275</ele>
        <time>2012-02-12T10:36:56Z</time>
      </trkpt>
      <trkpt lat="43.04432" lon="-0.47307">
        <ele>1122.476562</ele>
        <time>2012-02-12T10:36:58Z</time>
      </trkpt>
      <trkpt lat="43.04422" lon="-0.47309">
        <ele>1121.034668</ele>
        <time>2012-02-12T10:37:20Z</time>
      </trkpt>
      <trkpt lat="43.04406" lon="-0.47324">
        <ele>1121.515137</ele>
        <time>2012-02-12T10:37:42Z</time>
      </trkpt>
      <trkpt lat="43.04401" lon="-0.47333">
        <ele>1124.879883</ele>
        <time>2012-02-12T10:37:54Z</time>
      </trkpt>
      <trkpt lat="43.04392" lon="-0.47348">
        <ele>1127.763672</ele>
        <time>2012-02-12T10:38:13Z</time>
      </trkpt>
      <trkpt lat="43.04383" lon="-0.47365">
        <ele>1131.128418</ele>
        <time>2012-02-12T10:38:35Z</time>
      </trkpt>
      <trkpt lat="43.04378" lon="-0.4738">
        <ele>1133.531738</ele>
        <time>2012-02-12T10:38:52Z</time>
      </trkpt>
      <trkpt lat="43.04383" lon="-0.47394">
        <ele>1136.415771</ele>
        <time>2012-02-12T10:39:07Z</time>
      </trkpt>
      <trkpt lat="43.04384" lon="-0.47407">
        <ele>1138.338379</ele>
        <time>2012-02-12T10:39:20Z</time>
      </trkpt>
      <trkpt lat="43.04384" lon="-0.47413">
        <ele>1141.702881</ele>
        <time>2012-02-12T10:39:30Z</time>
      </trkpt>
      <trkpt lat="43.04374" lon="-0.4742">
        <ele>1143.144775</ele>
        <time>2012-02-12T10:39:46Z</time>
      </trkpt>
      <trkpt lat="43.04375" lon="-0.47437">
        <ele>1145.067383</ele>
        <time>2012-02-12T10:40:01Z</time>
      </trkpt>
      <trkpt lat="43.04376" lon="-0.47442">
        <ele>1145.067383</ele>
        <time>2012-02-12T10:40:05Z</time>
      </trkpt>
      <trkpt lat="43.04378" lon="-0.4745">
        <ele>1146.028809</ele>
        <time>2012-02-12T10:40:21Z</time>
      </trkpt>
      <trkpt lat="43.04374" lon="-0.47454">
        <ele>1147.470703</ele>
        <time>2012-02-12T10:40:38Z</time>
      </trkpt>
      <trkpt lat="43.0437" lon="-0.47458">
        <ele>1149.393555</ele>
        <time>2012-02-12T10:40:54Z</time>
      </trkpt>
      <trkpt lat="43.04371" lon="-0.47464">
        <ele>1151.316162</ele>
        <time>2012-02-12T10:41:08Z</time>
      </trkpt>
      <trkpt lat="43.04368" lon="-0.47472">
        <ele>1154.680664</ele>
        <time>2012-02-12T10:41:22Z</time>
      </trkpt>
      <trkpt lat="43.04365" lon="-0.47474">
        <ele>1156.122559</ele>
        <time>2012-02-12T10:41:27Z</time>
      </trkpt>
      <trkpt lat="43.0436" lon="-0.47479">
        <ele>1159.487305</ele>
        <time>2012-02-12T10:41:43Z</time>
      </trkpt>
      <trkpt lat="43.04361" lon="-0.47484">
        <ele>1162.371094</ele>
        <time>2012-02-12T10:41:50Z</time>
      </trkpt>
      <trkpt lat="43.04361" lon="-0.47484">
        <ele>1162.851807</ele>
        <time>2012-02-12T10:41:51Z</time>
      </trkpt>
      <trkpt lat="43.04366" lon="-0.4749">
        <ele>1166.216553</ele>
        <time>2012-02-12T10:42:03Z</time>
      </trkpt>
      <trkpt lat="43.04368" lon="-0.47496">
        <ele>1168.13916</ele>
        <time>2012-02-12T10:42:16Z</time>
      </trkpt>
      <trkpt lat="43.04365" lon="-0.47503">
        <ele>1171.023193</ele>
        <time>2012-02-12T10:42:32Z</time>
      </trkpt>
      <trkpt lat="43.04366" lon="-0.47511">
        <ele>1174.387695</ele>
        <time>2012-02-12T10:42:43Z</time>
      </trkpt>
      <trkpt lat="43.04374" lon="-0.47518">
        <ele>1176.791016</ele>
        <time>2012-02-12T10:42:57Z</time>
      </trkpt>
      <trkpt lat="43.04384" lon="-0.47532">
        <ele>1179.674805</ele>
        <time>2012-02-12T10:43:17Z</time>
      </trkpt>
      <trkpt lat="43.04387" lon="-0.47546">
        <ele>1182.559082</ele>
        <time>2012-02-12T10:43:34Z</time>
      </trkpt>
      <trkpt lat="43.04387" lon="-0.47562">
        <ele>1185.442871</ele>
        <time>2012-02-12T10:43:53Z</time>
      </trkpt>
      <trkpt lat="43.04386" lon="-0.47581">
        <ele>1188.326904</ele>
        <time>2012-02-12T10:44:11Z</time>
      </trkpt>
      <trkpt lat="43.0439" lon="-0.476">
        <ele>1190.249512</ele>
        <time>2012-02-12T10:44:30Z</time>
      </trkpt>
      <trkpt lat="43.04396" lon="-0.47613">
        <ele>1193.614014</ele>
        <time>2012-02-12T10:44:44Z</time>
      </trkpt>
      <trkpt lat="43.044" lon="-0.4763">
        <ele>1195.536621</ele>
        <time>2012-02-12T10:45:01Z</time>
      </trkpt>
      <trkpt lat="43.04401" lon="-0.47636">
        <ele>1196.97876</ele>
        <time>2012-02-12T10:45:29Z</time>
      </trkpt>
      <trkpt lat="43.04399" lon="-0.47645">
        <ele>1196.498291</ele>
        <time>2012-02-12T10:45:48Z</time>
      </trkpt>
      <trkpt lat="43.04399" lon="-0.47653">
        <ele>1197.940186</ele>
        <time>2012-02-12T10:46:30Z</time>
      </trkpt>
      <trkpt lat="43.04405" lon="-0.47654">
        <ele>1196.97876</ele>
        <time>2012-02-12T10:46:56Z</time>
      </trkpt>
      <trkpt lat="43.04404" lon="-0.47657">
        <ele>1196.498291</ele>
        <time>2012-02-12T10:49:14Z</time>
      </trkpt>
      <trkpt lat="43.04405" lon="-0.47656">
        <ele>1195.536621</ele>
        <time>2012-02-12T10:50:24Z</time>
      </trkpt>
      <trkpt lat="43.04403" lon="-0.47662">
        <ele>1195.536621</ele>
        <time>2012-02-12T10:51:31Z</time>
      </trkpt>
      <trkpt lat="43.04403" lon="-0.47675">
        <ele>1197.940186</ele>
        <time>2012-02-12T10:51:46Z</time>
      </trkpt>
      <trkpt lat="43.04413" lon="-0.47692">
        <ele>1199.862793</ele>
        <time>2012-02-12T10:52:05Z</time>
      </trkpt>
      <trkpt lat="43.04423" lon="-0.47707">
        <ele>1201.304688</ele>
        <time>2012-02-12T10:52:25Z</time>
      </trkpt>
      <trkpt lat="43.04429" lon="-0.47726">
        <ele>1202.746582</ele>
        <time>2012-02-12T10:52:43Z</time>
      </trkpt>
      <trkpt lat="43.04438" lon="-0.47751">
        <ele>1205.630615</ele>
        <time>2012-02-12T10:53:06Z</time>
      </trkpt>
      <trkpt lat="43.04442" lon="-0.47763">
        <ele>1206.111084</ele>
        <time>2012-02-12T10:53:22Z</time>
      </trkpt>
      <trkpt lat="43.04442" lon="-0.4776">
        <ele>1205.149902</ele>
        <time>2012-02-12T10:53:39Z</time>
      </trkpt>
      <trkpt lat="43.04446" lon="-0.47753">
        <ele>1205.149902</ele>
        <time>2012-02-12T10:53:54Z</time>
      </trkpt>
      <trkpt lat="43.0446" lon="-0.47736">
        <ele>1207.07251</ele>
        <time>2012-02-12T10:54:14Z</time>
      </trkpt>
      <trkpt lat="43.04462" lon="-0.47733">
        <ele>1207.07251</ele>
        <time>2012-02-12T10:54:18Z</time>
      </trkpt>
      <trkpt lat="43.04475" lon="-0.47725">
        <ele>1207.553223</ele>
        <time>2012-02-12T10:54:34Z</time>
      </trkpt>
      <trkpt lat="43.04489" lon="-0.47716">
        <ele>1208.514404</ele>
        <time>2012-02-12T10:54:50Z</time>
      </trkpt>
      <trkpt lat="43.04499" lon="-0.47703">
        <ele>1209.47583</ele>
        <time>2012-02-12T10:55:06Z</time>
      </trkpt>
      <trkpt lat="43.04512" lon="-0.47684">
        <ele>1210.917725</ele>
        <time>2012-02-12T10:55:26Z</time>
      </trkpt>
      <trkpt lat="43.04513" lon="-0.47683">
        <ele>1210.917725</ele>
        <time>2012-02-12T10:55:27Z</time>
      </trkpt>
      <trkpt lat="43.04523" lon="-0.47679">
        <ele>1213.801758</ele>
        <time>2012-02-12T10:55:40Z</time>
      </trkpt>
      <trkpt lat="43.04543" lon="-0.47681">
        <ele>1215.243896</ele>
        <time>2012-02-12T10:56:03Z</time>
      </trkpt>
      <trkpt lat="43.04558" lon="-0.47691">
        <ele>1217.646973</ele>
        <time>2012-02-12T10:56:22Z</time>
      </trkpt>
      <trkpt lat="43.04565" lon="-0.47702">
        <ele>1220.050293</ele>
        <time>2012-02-12T10:56:37Z</time>
      </trkpt>
      <trkpt lat="43.0457" lon="-0.47712">
        <ele>1221.492188</ele>
        <time>2012-02-12T10:56:49Z</time>
      </trkpt>
      <trkpt lat="43.04579" lon="-0.47726">
        <ele>1222.453613</ele>
        <time>2012-02-12T10:57:05Z</time>
      </trkpt>
      <trkpt lat="43.04586" lon="-0.47747">
        <ele>1223.415039</ele>
        <time>2012-02-12T10:57:26Z</time>
      </trkpt>
      <trkpt lat="43.0459" lon="-0.47768">
        <ele>1225.337402</ele>
        <time>2012-02-12T10:57:47Z</time>
      </trkpt>
      <trkpt lat="43.04592" lon="-0.47786">
        <ele>1227.260254</ele>
        <time>2012-02-12T10:58:06Z</time>
      </trkpt>
      <trkpt lat="43.04593" lon="-0.47802">
        <ele>1227.740723</ele>
        <time>2012-02-12T10:58:23Z</time>
      </trkpt>
      <trkpt lat="43.04591" lon="-0.47823">
        <ele>1230.144287</ele>
        <time>2012-02-12T10:58:44Z</time>
      </trkpt>
      <trkpt lat="43.04593" lon="-0.4784">
        <ele>1232.547607</ele>
        <time>2012-02-12T10:59:02Z</time>
      </trkpt>
      <trkpt lat="43.04593" lon="-0.47855">
        <ele>1233.989502</ele>
        <time>2012-02-12T10:59:17Z</time>
      </trkpt>
      <trkpt lat="43.04589" lon="-0.47875">
        <ele>1234.950928</ele>
        <time>2012-02-12T10:59:36Z</time>
      </trkpt>
      <trkpt lat="43.04576" lon="-0.4789">
        <ele>1236.392822</ele>
        <time>2012-02-12T10:59:56Z</time>
      </trkpt>
      <trkpt lat="43.04558" lon="-0.47901">
        <ele>1237.354004</ele>
        <time>2012-02-12T11:00:18Z</time>
      </trkpt>
      <trkpt lat="43.04537" lon="-0.47909">
        <ele>1239.276611</ele>
        <time>2012-02-12T11:00:42Z</time>
      </trkpt>
      <trkpt lat="43.0452" lon="-0.47918">
        <ele>1239.276611</ele>
        <time>2012-02-12T11:01:03Z</time>
      </trkpt>
      <trkpt lat="43.04519" lon="-0.47919">
        <ele>1239.276611</ele>
        <time>2012-02-12T11:01:04Z</time>
      </trkpt>
      <trkpt lat="43.04509" lon="-0.47927">
        <ele>1237.834717</ele>
        <time>2012-02-12T11:01:17Z</time>
      </trkpt>
      <trkpt lat="43.045" lon="-0.47938">
        <ele>1238.31543</ele>
        <time>2012-02-12T11:01:34Z</time>
      </trkpt>
      <trkpt lat="43.04492" lon="-0.47945">
        <ele>1238.31543</ele>
        <time>2012-02-12T11:01:53Z</time>
      </trkpt>
      <trkpt lat="43.04489" lon="-0.47941">
        <ele>1239.276611</ele>
        <time>2012-02-12T11:02:30Z</time>
      </trkpt>
      <trkpt lat="43.04491" lon="-0.47947">
        <ele>1239.757324</ele>
        <time>2012-02-12T11:03:02Z</time>
      </trkpt>
      <trkpt lat="43.0449" lon="-0.47948">
        <ele>1239.757324</ele>
        <time>2012-02-12T11:03:31Z</time>
      </trkpt>
      <trkpt lat="43.0449" lon="-0.47948">
        <ele>1239.757324</ele>
        <time>2012-02-12T11:04:12Z</time>
      </trkpt>
      <trkpt lat="43.04491" lon="-0.4795">
        <ele>1239.757324</ele>
        <time>2012-02-12T11:05:03Z</time>
      </trkpt>
      <trkpt lat="43.04487" lon="-0.47965">
        <ele>1240.238037</ele>
        <time>2012-02-12T11:05:19Z</time>
      </trkpt>
      <trkpt lat="43.04483" lon="-0.47986">
        <ele>1240.238037</ele>
        <time>2012-02-12T11:05:37Z</time>
      </trkpt>
      <trkpt lat="43.04477" lon="-0.4801">
        <ele>1241.199219</ele>
        <time>2012-02-12T11:05:56Z</time>
      </trkpt>
      <trkpt lat="43.04464" lon="-0.48032">
        <ele>1240.238037</ele>
        <time>2012-02-12T11:06:17Z</time>
      </trkpt>
      <trkpt lat="43.04452" lon="-0.48053">
        <ele>1241.199219</ele>
        <time>2012-02-12T11:06:38Z</time>
      </trkpt>
      <trkpt lat="43.0444" lon="-0.4807">
        <ele>1244.083496</ele>
        <time>2012-02-12T11:06:57Z</time>
      </trkpt>
      <trkpt lat="43.04435" lon="-0.48074">
        <ele>1244.563965</ele>
        <time>2012-02-12T11:07:03Z</time>
      </trkpt>
      <trkpt lat="43.04427" lon="-0.48075">
        <ele>1244.083496</ele>
        <time>2012-02-12T11:07:11Z</time>
      </trkpt>
      <trkpt lat="43.04419" lon="-0.48095">
        <ele>1246.486816</ele>
        <time>2012-02-12T11:07:31Z</time>
      </trkpt>
      <trkpt lat="43.04412" lon="-0.4811">
        <ele>1249.851318</ele>
        <time>2012-02-12T11:07:46Z</time>
      </trkpt>
      <trkpt lat="43.04406" lon="-0.48126">
        <ele>1253.696533</ele>
        <time>2012-02-12T11:08:02Z</time>
      </trkpt>
      <trkpt lat="43.04404" lon="-0.48134">
        <ele>1256.099609</ele>
        <time>2012-02-12T11:08:11Z</time>
      </trkpt>
      <trkpt lat="43.04414" lon="-0.48136">
        <ele>1257.061035</ele>
        <time>2012-02-12T11:08:24Z</time>
      </trkpt>
      <trkpt lat="43.04427" lon="-0.48126">
        <ele>1258.983643</ele>
        <time>2012-02-12T11:08:44Z</time>
      </trkpt>
      <trkpt lat="43.04438" lon="-0.48118">
        <ele>1260.906494</ele>
        <time>2012-02-12T11:09:05Z</time>
      </trkpt>
      <trkpt lat="43.04447" lon="-0.48111">
        <ele>1261.387207</ele>
        <time>2012-02-12T11:09:21Z</time>
      </trkpt>
      <trkpt lat="43.04458" lon="-0.48102">
        <ele>1263.309814</ele>
        <time>2012-02-12T11:09:39Z</time>
      </trkpt>
      <trkpt lat="43.0447" lon="-0.48093">
        <ele>1265.713135</ele>
        <time>2012-02-12T11:09:58Z</time>
      </trkpt>
      <trkpt lat="43.0449" lon="-0.48086">
        <ele>1264.270996</ele>
        <time>2012-02-12T11:10:21Z</time>
      </trkpt>
      <trkpt lat="43.04506" lon="-0.48078">
        <ele>1266.674316</ele>
        <time>2012-02-12T11:10:41Z</time>
      </trkpt>
      <trkpt lat="43.0452" lon="-0.48071">
        <ele>1269.55835</ele>
        <time>2012-02-12T11:11:00Z</time>
      </trkpt>
      <trkpt lat="43.04521" lon="-0.48085">
        <ele>1271.000244</ele>
        <time>2012-02-12T11:11:15Z</time>
      </trkpt>
      <trkpt lat="43.04514" lon="-0.48104">
        <ele>1272.922852</ele>
        <time>2012-02-12T11:11:34Z</time>
      </trkpt>
      <trkpt lat="43.04494" lon="-0.48117">
        <ele>1272.442139</ele>
        <time>2012-02-12T11:11:58Z</time>
      </trkpt>
      <trkpt lat="43.04483" lon="-0.48137">
        <ele>1275.325928</ele>
        <time>2012-02-12T11:12:19Z</time>
      </trkpt>
      <trkpt lat="43.04486" lon="-0.48155">
        <ele>1278.690918</ele>
        <time>2012-02-12T11:12:36Z</time>
      </trkpt>
      <trkpt lat="43.04485" lon="-0.48176">
        <ele>1281.094238</ele>
        <time>2012-02-12T11:12:57Z</time>
      </trkpt>
      <trkpt lat="43.04483" lon="-0.48187">
        <ele>1284.45874</ele>
        <time>2012-02-12T11:13:11Z</time>
      </trkpt>
      <trkpt lat="43.04481" lon="-0.482">
        <ele>1285.419922</ele>
        <time>2012-02-12T11:13:28Z</time>
      </trkpt>
      <trkpt lat="43.04481" lon="-0.48206">
        <ele>1286.861816</ele>
        <time>2012-02-12T11:13:42Z</time>
      </trkpt>
      <trkpt lat="43.04479" lon="-0.48221">
        <ele>1288.784668</ele>
        <time>2012-02-12T11:14:01Z</time>
      </trkpt>
      <trkpt lat="43.04479" lon="-0.48224">
        <ele>1289.265137</ele>
        <time>2012-02-12T11:14:03Z</time>
      </trkpt>
      <trkpt lat="43.04479" lon="-0.4824">
        <ele>1291.668457</ele>
        <time>2012-02-12T11:14:17Z</time>
      </trkpt>
      <trkpt lat="43.04478" lon="-0.4824">
        <ele>1291.668457</ele>
        <time>2012-02-12T11:14:18Z</time>
      </trkpt>
      <trkpt lat="43.04472" lon="-0.48243">
        <ele>1293.110596</ele>
        <time>2012-02-12T11:14:24Z</time>
      </trkpt>
    </trkseg>
  </trk>
  <trk>
    <name><![CDATA[ACTIVE LOG 004]]></name>
    <trkseg>
      <trkpt lat="43.04405" lon="-0.48298">
        <ele>1313.29834</ele>
        <time>2012-02-12T11:51:52Z</time>
      </trkpt>
      <trkpt lat="43.04405" lon="-0.48271">
        <ele>1310.414307</ele>
        <time>2012-02-12T11:52:00Z</time>
      </trkpt>
      <trkpt lat="43.04405" lon="-0.4827">
        <ele>1310.414307</ele>
        <time>2012-02-12T11:52:01Z</time>
      </trkpt>
      <trkpt lat="43.04405" lon="-0.48269">
        <ele>1308.491699</ele>
        <time>2012-02-12T11:52:04Z</time>
      </trkpt>
      <trkpt lat="43.04405" lon="-0.48266">
        <ele>1305.126953</ele>
        <time>2012-02-12T11:52:11Z</time>
      </trkpt>
      <trkpt lat="43.04405" lon="-0.48266">
        <ele>1303.204346</ele>
        <time>2012-02-12T11:52:16Z</time>
      </trkpt>
      <trkpt lat="43.04405" lon="-0.48269">
        <ele>1299.839844</ele>
        <time>2012-02-12T11:52:26Z</time>
      </trkpt>
      <trkpt lat="43.04405" lon="-0.48269">
        <ele>1298.878418</ele>
        <time>2012-02-12T11:52:28Z</time>
      </trkpt>
      <trkpt lat="43.04403" lon="-0.48272">
        <ele>1295.994629</ele>
        <time>2012-02-12T11:52:46Z</time>
      </trkpt>
      <trkpt lat="43.04403" lon="-0.4827">
        <ele>1292.630127</ele>
        <time>2012-02-12T11:53:27Z</time>
      </trkpt>
      <trkpt lat="43.04402" lon="-0.48271">
        <ele>1282.536133</ele>
        <time>2012-02-12T11:54:04Z</time>
      </trkpt>
      <trkpt lat="43.04402" lon="-0.48271">
        <ele>1289.265137</ele>
        <time>2012-02-12T11:54:05Z</time>
      </trkpt>
      <trkpt lat="43.04404" lon="-0.4827">
        <ele>1291.187744</ele>
        <time>2012-02-12T11:54:23Z</time>
      </trkpt>
      <trkpt lat="43.04404" lon="-0.48269">
        <ele>1291.668457</ele>
        <time>2012-02-12T11:54:53Z</time>
      </trkpt>
      <trkpt lat="43.04405" lon="-0.48269">
        <ele>1291.668457</ele>
        <time>2012-02-12T11:55:13Z</time>
      </trkpt>
      <trkpt lat="43.04405" lon="-0.48268">
        <ele>1290.707031</ele>
        <time>2012-02-12T11:55:38Z</time>
      </trkpt>
      <trkpt lat="43.04403" lon="-0.48265">
        <ele>1290.226562</ele>
        <time>2012-02-12T11:55:58Z</time>
      </trkpt>
      <trkpt lat="43.04407" lon="-0.4827">
        <ele>1290.707031</ele>
        <time>2012-02-12T11:56:40Z</time>
      </trkpt>
      <trkpt lat="43.04405" lon="-0.48271">
        <ele>1297.436523</ele>
        <time>2012-02-12T11:57:31Z</time>
      </trkpt>
      <trkpt lat="43.04405" lon="-0.4827">
        <ele>1292.630127</ele>
        <time>2012-02-12T11:57:32Z</time>
      </trkpt>
      <trkpt lat="43.04405" lon="-0.4827">
        <ele>1291.187744</ele>
        <time>2012-02-12T11:57:34Z</time>
      </trkpt>
      <trkpt lat="43.04406" lon="-0.48271">
        <ele>1292.149414</ele>
        <time>2012-02-12T11:57:51Z</time>
      </trkpt>
      <trkpt lat="43.04405" lon="-0.48268">
        <ele>1292.630127</ele>
        <time>2012-02-12T11:58:16Z</time>
      </trkpt>
      <trkpt lat="43.04404" lon="-0.48269">
        <ele>1292.149414</ele>
        <time>2012-02-12T11:59:10Z</time>
      </trkpt>
      <trkpt lat="43.04405" lon="-0.48271">
        <ele>1292.149414</ele>
        <time>2012-02-12T11:59:34Z</time>
      </trkpt>
      <trkpt lat="43.04404" lon="-0.48271">
        <ele>1291.187744</ele>
        <time>2012-02-12T11:59:52Z</time>
      </trkpt>
      <trkpt lat="43.04404" lon="-0.48272">
        <ele>1291.187744</ele>
        <time>2012-02-12T12:00:15Z</time>
      </trkpt>
      <trkpt lat="43.04405" lon="-0.48272">
        <ele>1290.707031</ele>
        <time>2012-02-12T12:00:44Z</time>
      </trkpt>
      <trkpt lat="43.04405" lon="-0.48272">
        <ele>1292.149414</ele>
        <time>2012-02-12T12:01:07Z</time>
      </trkpt>
      <trkpt lat="43.04404" lon="-0.48272">
        <ele>1292.630127</ele>
        <time>2012-02-12T12:01:34Z</time>
      </trkpt>
      <trkpt lat="43.04405" lon="-0.4827">
        <ele>1293.110596</ele>
        <time>2012-02-12T12:02:25Z</time>
      </trkpt>
      <trkpt lat="43.04409" lon="-0.48271">
        <ele>1292.149414</ele>
        <time>2012-02-12T12:02:36Z</time>
      </trkpt>
      <trkpt lat="43.04414" lon="-0.48271">
        <ele>1292.149414</ele>
        <time>2012-02-12T12:02:42Z</time>
      </trkpt>
      <trkpt lat="43.04426" lon="-0.48259">
        <ele>1293.110596</ele>
        <time>2012-02-12T12:03:01Z</time>
      </trkpt>
      <trkpt lat="43.0444" lon="-0.48247">
        <ele>1291.187744</ele>
        <time>2012-02-12T12:03:21Z</time>
      </trkpt>
      <trkpt lat="43.04454" lon="-0.4824">
        <ele>1288.303955</ele>
        <time>2012-02-12T12:03:38Z</time>
      </trkpt>
      <trkpt lat="43.04464" lon="-0.48243">
        <ele>1284.939453</ele>
        <time>2012-02-12T12:03:49Z</time>
      </trkpt>
      <trkpt lat="43.04468" lon="-0.48243">
        <ele>1283.497314</ele>
        <time>2012-02-12T12:03:53Z</time>
      </trkpt>
      <trkpt lat="43.04474" lon="-0.48243">
        <ele>1282.05542</ele>
        <time>2012-02-12T12:03:59Z</time>
      </trkpt>
      <trkpt lat="43.04479" lon="-0.48238">
        <ele>1282.05542</ele>
        <time>2012-02-12T12:04:05Z</time>
      </trkpt>
      <trkpt lat="43.0448" lon="-0.48214">
        <ele>1278.690918</ele>
        <time>2012-02-12T12:04:21Z</time>
      </trkpt>
      <trkpt lat="43.0448" lon="-0.48212">
        <ele>1278.210205</ele>
        <time>2012-02-12T12:04:23Z</time>
      </trkpt>
      <trkpt lat="43.04482" lon="-0.48183">
        <ele>1274.364746</ele>
        <time>2012-02-12T12:04:43Z</time>
      </trkpt>
      <trkpt lat="43.04483" lon="-0.48179">
        <ele>1272.442139</ele>
        <time>2012-02-12T12:04:47Z</time>
      </trkpt>
      <trkpt lat="43.04484" lon="-0.48176">
        <ele>1271.961426</ele>
        <time>2012-02-12T12:04:49Z</time>
      </trkpt>
      <trkpt lat="43.04482" lon="-0.48151">
        <ele>1268.596924</ele>
        <time>2012-02-12T12:05:06Z</time>
      </trkpt>
      <trkpt lat="43.04485" lon="-0.4813">
        <ele>1265.232422</ele>
        <time>2012-02-12T12:05:19Z</time>
      </trkpt>
      <trkpt lat="43.04495" lon="-0.48105">
        <ele>1261.387207</ele>
        <time>2012-02-12T12:05:37Z</time>
      </trkpt>
      <trkpt lat="43.04492" lon="-0.481">
        <ele>1259.464355</ele>
        <time>2012-02-12T12:05:43Z</time>
      </trkpt>
      <trkpt lat="43.0449" lon="-0.48098">
        <ele>1258.022461</ele>
        <time>2012-02-12T12:05:47Z</time>
      </trkpt>
      <trkpt lat="43.04482" lon="-0.4809">
        <ele>1255.138428</ele>
        <time>2012-02-12T12:06:03Z</time>
      </trkpt>
      <trkpt lat="43.04488" lon="-0.48084">
        <ele>1254.657715</ele>
        <time>2012-02-12T12:06:10Z</time>
      </trkpt>
      <trkpt lat="43.0449" lon="-0.4807">
        <ele>1252.254395</ele>
        <time>2012-02-12T12:06:19Z</time>
      </trkpt>
      <trkpt lat="43.0449" lon="-0.48053">
        <ele>1250.332031</ele>
        <time>2012-02-12T12:06:31Z</time>
      </trkpt>
      <trkpt lat="43.04498" lon="-0.48041">
        <ele>1246.486816</ele>
        <time>2012-02-12T12:06:41Z</time>
      </trkpt>
      <trkpt lat="43.04499" lon="-0.48038">
        <ele>1246.006104</ele>
        <time>2012-02-12T12:06:43Z</time>
      </trkpt>
      <trkpt lat="43.04503" lon="-0.48029">
        <ele>1242.641357</ele>
        <time>2012-02-12T12:06:51Z</time>
      </trkpt>
      <trkpt lat="43.04504" lon="-0.48024">
        <ele>1242.160645</ele>
        <time>2012-02-12T12:06:55Z</time>
      </trkpt>
      <trkpt lat="43.04512" lon="-0.48016">
        <ele>1240.718506</ele>
        <time>2012-02-12T12:07:03Z</time>
      </trkpt>
      <trkpt lat="43.04521" lon="-0.48009">
        <ele>1237.354004</ele>
        <time>2012-02-12T12:07:12Z</time>
      </trkpt>
      <trkpt lat="43.04527" lon="-0.48002">
        <ele>1235.912109</ele>
        <time>2012-02-12T12:07:19Z</time>
      </trkpt>
      <trkpt lat="43.04533" lon="-0.47993">
        <ele>1235.431396</ele>
        <time>2012-02-12T12:07:25Z</time>
      </trkpt>
      <trkpt lat="43.04537" lon="-0.47973">
        <ele>1232.066895</ele>
        <time>2012-02-12T12:07:37Z</time>
      </trkpt>
      <trkpt lat="43.04536" lon="-0.47952">
        <ele>1231.105713</ele>
        <time>2012-02-12T12:07:51Z</time>
      </trkpt>
      <trkpt lat="43.04534" lon="-0.47934">
        <ele>1228.702393</ele>
        <time>2012-02-12T12:08:01Z</time>
      </trkpt>
      <trkpt lat="43.04519" lon="-0.47924">
        <ele>1227.260254</ele>
        <time>2012-02-12T12:08:16Z</time>
      </trkpt>
      <trkpt lat="43.04514" lon="-0.47926">
        <ele>1226.779541</ele>
        <time>2012-02-12T12:08:22Z</time>
      </trkpt>
      <trkpt lat="43.04502" lon="-0.47929">
        <ele>1225.818115</ele>
        <time>2012-02-12T12:08:34Z</time>
      </trkpt>
      <trkpt lat="43.04494" lon="-0.47931">
        <ele>1225.818115</ele>
        <time>2012-02-12T12:08:51Z</time>
      </trkpt>
      <trkpt lat="43.04501" lon="-0.47922">
        <ele>1225.818115</ele>
        <time>2012-02-12T12:09:01Z</time>
      </trkpt>
      <trkpt lat="43.04509" lon="-0.47922">
        <ele>1226.298828</ele>
        <time>2012-02-12T12:09:09Z</time>
      </trkpt>
      <trkpt lat="43.04522" lon="-0.47918">
        <ele>1227.740723</ele>
        <time>2012-02-12T12:09:22Z</time>
      </trkpt>
      <trkpt lat="43.04527" lon="-0.47915">
        <ele>1228.22168</ele>
        <time>2012-02-12T12:09:26Z</time>
      </trkpt>
      <trkpt lat="43.04548" lon="-0.47909">
        <ele>1227.260254</ele>
        <time>2012-02-12T12:09:42Z</time>
      </trkpt>
      <trkpt lat="43.04567" lon="-0.47897">
        <ele>1225.337402</ele>
        <time>2012-02-12T12:09:57Z</time>
      </trkpt>
      <trkpt lat="43.04573" lon="-0.47895">
        <ele>1225.337402</ele>
        <time>2012-02-12T12:10:02Z</time>
      </trkpt>
      <trkpt lat="43.0458" lon="-0.47888">
        <ele>1223.895508</ele>
        <time>2012-02-12T12:10:08Z</time>
      </trkpt>
      <trkpt lat="43.0459" lon="-0.47869">
        <ele>1222.934326</ele>
        <time>2012-02-12T12:10:20Z</time>
      </trkpt>
      <trkpt lat="43.04594" lon="-0.47848">
        <ele>1220.531006</ele>
        <time>2012-02-12T12:10:33Z</time>
      </trkpt>
      <trkpt lat="43.04596" lon="-0.47825">
        <ele>1218.127686</ele>
        <time>2012-02-12T12:10:45Z</time>
      </trkpt>
      <trkpt lat="43.04597" lon="-0.47807">
        <ele>1214.763184</ele>
        <time>2012-02-12T12:10:55Z</time>
      </trkpt>
      <trkpt lat="43.04597" lon="-0.47805">
        <ele>1214.763184</ele>
        <time>2012-02-12T12:10:56Z</time>
      </trkpt>
      <trkpt lat="43.04593" lon="-0.47776">
        <ele>1213.321289</ele>
        <time>2012-02-12T12:11:12Z</time>
      </trkpt>
      <trkpt lat="43.04586" lon="-0.47744">
        <ele>1210.437012</ele>
        <time>2012-02-12T12:11:28Z</time>
      </trkpt>
      <trkpt lat="43.0457" lon="-0.47712">
        <ele>1207.07251</ele>
        <time>2012-02-12T12:11:47Z</time>
      </trkpt>
      <trkpt lat="43.04557" lon="-0.47691">
        <ele>1203.708008</ele>
        <time>2012-02-12T12:12:01Z</time>
      </trkpt>
      <trkpt lat="43.04534" lon="-0.4768">
        <ele>1201.7854</ele>
        <time>2012-02-12T12:12:18Z</time>
      </trkpt>
      <trkpt lat="43.04515" lon="-0.47678">
        <ele>1199.38208</ele>
        <time>2012-02-12T12:12:36Z</time>
      </trkpt>
      <trkpt lat="43.04514" lon="-0.47676">
        <ele>1198.901367</ele>
        <time>2012-02-12T12:13:14Z</time>
      </trkpt>
      <trkpt lat="43.04496" lon="-0.47708">
        <ele>1196.498291</ele>
        <time>2012-02-12T12:13:35Z</time>
      </trkpt>
      <trkpt lat="43.04475" lon="-0.47725">
        <ele>1195.536621</ele>
        <time>2012-02-12T12:13:52Z</time>
      </trkpt>
      <trkpt lat="43.04458" lon="-0.4774">
        <ele>1193.133301</ele>
        <time>2012-02-12T12:14:06Z</time>
      </trkpt>
      <trkpt lat="43.04438" lon="-0.47754">
        <ele>1191.210693</ele>
        <time>2012-02-12T12:14:22Z</time>
      </trkpt>
      <trkpt lat="43.04431" lon="-0.47742">
        <ele>1190.249512</ele>
        <time>2012-02-12T12:14:30Z</time>
      </trkpt>
      <trkpt lat="43.0442" lon="-0.47703">
        <ele>1187.365479</ele>
        <time>2012-02-12T12:14:51Z</time>
      </trkpt>
      <trkpt lat="43.04404" lon="-0.47678">
        <ele>1184.000977</ele>
        <time>2012-02-12T12:15:08Z</time>
      </trkpt>
      <trkpt lat="43.04405" lon="-0.47665">
        <ele>1182.078369</ele>
        <time>2012-02-12T12:15:16Z</time>
      </trkpt>
      <trkpt lat="43.04401" lon="-0.47651">
        <ele>1181.117188</ele>
        <time>2012-02-12T12:15:26Z</time>
      </trkpt>
      <trkpt lat="43.04401" lon="-0.47644">
        <ele>1180.155762</ele>
        <time>2012-02-12T12:15:30Z</time>
      </trkpt>
      <trkpt lat="43.04399" lon="-0.47628">
        <ele>1178.713623</ele>
        <time>2012-02-12T12:15:39Z</time>
      </trkpt>
      <trkpt lat="43.04388" lon="-0.47597">
        <ele>1175.348877</ele>
        <time>2012-02-12T12:15:57Z</time>
      </trkpt>
      <trkpt lat="43.04384" lon="-0.47578">
        <ele>1171.984375</ele>
        <time>2012-02-12T12:16:08Z</time>
      </trkpt>
      <trkpt lat="43.04388" lon="-0.47552">
        <ele>1168.13916</ele>
        <time>2012-02-12T12:16:24Z</time>
      </trkpt>
      <trkpt lat="43.04386" lon="-0.47534">
        <ele>1165.255371</ele>
        <time>2012-02-12T12:16:35Z</time>
      </trkpt>
      <trkpt lat="43.04382" lon="-0.47528">
        <ele>1163.812988</ele>
        <time>2012-02-12T12:16:40Z</time>
      </trkpt>
      <trkpt lat="43.04377" lon="-0.47523">
        <ele>1162.371094</ele>
        <time>2012-02-12T12:16:45Z</time>
      </trkpt>
      <trkpt lat="43.04374" lon="-0.47517">
        <ele>1161.890625</ele>
        <time>2012-02-12T12:16:49Z</time>
      </trkpt>
      <trkpt lat="43.04367" lon="-0.47512">
        <ele>1157.083984</ele>
        <time>2012-02-12T12:16:58Z</time>
      </trkpt>
      <trkpt lat="43.04366" lon="-0.47506">
        <ele>1156.122559</ele>
        <time>2012-02-12T12:17:04Z</time>
      </trkpt>
      <trkpt lat="43.04368" lon="-0.47504">
        <ele>1154.200195</ele>
        <time>2012-02-12T12:17:07Z</time>
      </trkpt>
      <trkpt lat="43.04368" lon="-0.475">
        <ele>1152.277344</ele>
        <time>2012-02-12T12:17:12Z</time>
      </trkpt>
      <trkpt lat="43.04367" lon="-0.47494">
        <ele>1148.432129</ele>
        <time>2012-02-12T12:17:23Z</time>
      </trkpt>
      <trkpt lat="43.04363" lon="-0.47483">
        <ele>1145.067383</ele>
        <time>2012-02-12T12:17:38Z</time>
      </trkpt>
      <trkpt lat="43.04367" lon="-0.47476">
        <ele>1141.702881</ele>
        <time>2012-02-12T12:17:47Z</time>
      </trkpt>
      <trkpt lat="43.04372" lon="-0.47467">
        <ele>1138.338379</ele>
        <time>2012-02-12T12:17:56Z</time>
      </trkpt>
      <trkpt lat="43.04373" lon="-0.47464">
        <ele>1136.89624</ele>
        <time>2012-02-12T12:17:59Z</time>
      </trkpt>
      <trkpt lat="43.04375" lon="-0.47452">
        <ele>1134.493164</ele>
        <time>2012-02-12T12:18:09Z</time>
      </trkpt>
      <trkpt lat="43.04376" lon="-0.47446">
        <ele>1132.570557</ele>
        <time>2012-02-12T12:18:13Z</time>
      </trkpt>
      <trkpt lat="43.0438" lon="-0.47438">
        <ele>1131.608887</ele>
        <time>2012-02-12T12:18:19Z</time>
      </trkpt>
      <trkpt lat="43.04384" lon="-0.47425">
        <ele>1128.244385</ele>
        <time>2012-02-12T12:18:29Z</time>
      </trkpt>
      <trkpt lat="43.04384" lon="-0.47423">
        <ele>1128.244385</ele>
        <time>2012-02-12T12:18:30Z</time>
      </trkpt>
      <trkpt lat="43.04384" lon="-0.47419">
        <ele>1127.283203</ele>
        <time>2012-02-12T12:18:44Z</time>
      </trkpt>
      <trkpt lat="43.04387" lon="-0.47407">
        <ele>1125.360352</ele>
        <time>2012-02-12T12:18:55Z</time>
      </trkpt>
      <trkpt lat="43.04387" lon="-0.47403">
        <ele>1123.918457</ele>
        <time>2012-02-12T12:18:58Z</time>
      </trkpt>
      <trkpt lat="43.04382" lon="-0.47394">
        <ele>1121.99585</ele>
        <time>2012-02-12T12:19:05Z</time>
      </trkpt>
      <trkpt lat="43.04378" lon="-0.47383">
        <ele>1118.631348</ele>
        <time>2012-02-12T12:19:14Z</time>
      </trkpt>
      <trkpt lat="43.04381" lon="-0.47373">
        <ele>1117.189453</ele>
        <time>2012-02-12T12:19:21Z</time>
      </trkpt>
      <trkpt lat="43.04386" lon="-0.47358">
        <ele>1114.785889</ele>
        <time>2012-02-12T12:19:38Z</time>
      </trkpt>
      <trkpt lat="43.04389" lon="-0.47355">
        <ele>1114.785889</ele>
        <time>2012-02-12T12:20:02Z</time>
      </trkpt>
      <trkpt lat="43.04393" lon="-0.47353">
        <ele>1113.343994</ele>
        <time>2012-02-12T12:20:06Z</time>
      </trkpt>
      <trkpt lat="43.044" lon="-0.47341">
        <ele>1110.940674</ele>
        <time>2012-02-12T12:20:15Z</time>
      </trkpt>
      <trkpt lat="43.04408" lon="-0.47327">
        <ele>1107.576172</ele>
        <time>2012-02-12T12:20:27Z</time>
      </trkpt>
      <trkpt lat="43.04416" lon="-0.47319">
        <ele>1104.692139</ele>
        <time>2012-02-12T12:20:35Z</time>
      </trkpt>
      <trkpt lat="43.04432" lon="-0.47312">
        <ele>1107.576172</ele>
        <time>2012-02-12T12:20:49Z</time>
      </trkpt>
      <trkpt lat="43.04437" lon="-0.47305">
        <ele>1107.095459</ele>
        <time>2012-02-12T12:20:55Z</time>
      </trkpt>
      <trkpt lat="43.04446" lon="-0.47286">
        <ele>1106.134033</ele>
        <time>2012-02-12T12:21:07Z</time>
      </trkpt>
      <trkpt lat="43.04458" lon="-0.47269">
        <ele>1104.692139</ele>
        <time>2012-02-12T12:21:20Z</time>
      </trkpt>
      <trkpt lat="43.04466" lon="-0.47253">
        <ele>1102.769531</ele>
        <time>2012-02-12T12:21:33Z</time>
      </trkpt>
      <trkpt lat="43.04486" lon="-0.47238">
        <ele>1100.366455</ele>
        <time>2012-02-12T12:21:50Z</time>
      </trkpt>
      <trkpt lat="43.04501" lon="-0.47216">
        <ele>1099.885498</ele>
        <time>2012-02-12T12:22:07Z</time>
      </trkpt>
      <trkpt lat="43.04506" lon="-0.47204">
        <ele>1097.962891</ele>
        <time>2012-02-12T12:22:14Z</time>
      </trkpt>
      <trkpt lat="43.04507" lon="-0.47195">
        <ele>1097.482178</ele>
        <time>2012-02-12T12:22:19Z</time>
      </trkpt>
      <trkpt lat="43.04491" lon="-0.4717">
        <ele>1096.520996</ele>
        <time>2012-02-12T12:22:37Z</time>
      </trkpt>
      <trkpt lat="43.04485" lon="-0.4716">
        <ele>1095.078857</ele>
        <time>2012-02-12T12:22:44Z</time>
      </trkpt>
      <trkpt lat="43.04469" lon="-0.47126">
        <ele>1094.117676</ele>
        <time>2012-02-12T12:23:05Z</time>
      </trkpt>
      <trkpt lat="43.04465" lon="-0.47082">
        <ele>1091.233643</ele>
        <time>2012-02-12T12:23:29Z</time>
      </trkpt>
      <trkpt lat="43.04477" lon="-0.47046">
        <ele>1089.311035</ele>
        <time>2012-02-12T12:23:50Z</time>
      </trkpt>
      <trkpt lat="43.04488" lon="-0.4702">
        <ele>1086.427246</ele>
        <time>2012-02-12T12:24:07Z</time>
      </trkpt>
      <trkpt lat="43.04492" lon="-0.47004">
        <ele>1085.46582</ele>
        <time>2012-02-12T12:24:17Z</time>
      </trkpt>
      <trkpt lat="43.04495" lon="-0.4697">
        <ele>1083.062256</ele>
        <time>2012-02-12T12:24:36Z</time>
      </trkpt>
      <trkpt lat="43.045" lon="-0.46939">
        <ele>1080.178467</ele>
        <time>2012-02-12T12:24:54Z</time>
      </trkpt>
      <trkpt lat="43.04518" lon="-0.46912">
        <ele>1079.697754</ele>
        <time>2012-02-12T12:25:15Z</time>
      </trkpt>
      <trkpt lat="43.04528" lon="-0.46887">
        <ele>1078.736572</ele>
        <time>2012-02-12T12:25:31Z</time>
      </trkpt>
      <trkpt lat="43.04536" lon="-0.4685">
        <ele>1075.371826</ele>
        <time>2012-02-12T12:25:52Z</time>
      </trkpt>
      <trkpt lat="43.04539" lon="-0.4682">
        <ele>1073.929932</ele>
        <time>2012-02-12T12:26:09Z</time>
      </trkpt>
      <trkpt lat="43.04557" lon="-0.46792">
        <ele>1072.488037</ele>
        <time>2012-02-12T12:26:29Z</time>
      </trkpt>
      <trkpt lat="43.04556" lon="-0.46788">
        <ele>1072.488037</ele>
        <time>2012-02-12T12:26:45Z</time>
      </trkpt>
      <trkpt lat="43.04557" lon="-0.46785">
        <ele>1072.488037</ele>
        <time>2012-02-12T12:27:02Z</time>
      </trkpt>
      <trkpt lat="43.04556" lon="-0.46786">
        <ele>1072.488037</ele>
        <time>2012-02-12T12:27:56Z</time>
      </trkpt>
      <trkpt lat="43.04556" lon="-0.46787">
        <ele>1073.449463</ele>
        <time>2012-02-12T12:28:39Z</time>
      </trkpt>
      <trkpt lat="43.04555" lon="-0.46788">
        <ele>1072.96875</ele>
        <time>2012-02-12T12:29:10Z</time>
      </trkpt>
      <trkpt lat="43.04564" lon="-0.46787">
        <ele>1071.046143</ele>
        <time>2012-02-12T12:29:58Z</time>
      </trkpt>
      <trkpt lat="43.04568" lon="-0.46786">
        <ele>1070.56543</ele>
        <time>2012-02-12T12:30:12Z</time>
      </trkpt>
      <trkpt lat="43.04574" lon="-0.46785">
        <ele>1068.642822</ele>
        <time>2012-02-12T12:30:18Z</time>
      </trkpt>
      <trkpt lat="43.04588" lon="-0.46782">
        <ele>1065.278076</ele>
        <time>2012-02-12T12:30:32Z</time>
      </trkpt>
      <trkpt lat="43.04602" lon="-0.46782">
        <ele>1061.913574</ele>
        <time>2012-02-12T12:30:44Z</time>
      </trkpt>
      <trkpt lat="43.04615" lon="-0.4677">
        <ele>1060.952148</ele>
        <time>2012-02-12T12:30:57Z</time>
      </trkpt>
      <trkpt lat="43.04624" lon="-0.46763">
        <ele>1059.990723</ele>
        <time>2012-02-12T12:31:07Z</time>
      </trkpt>
      <trkpt lat="43.04641" lon="-0.46749">
        <ele>1058.548828</ele>
        <time>2012-02-12T12:31:22Z</time>
      </trkpt>
      <trkpt lat="43.0466" lon="-0.46746">
        <ele>1055.184326</ele>
        <time>2012-02-12T12:31:36Z</time>
      </trkpt>
      <trkpt lat="43.04664" lon="-0.46746">
        <ele>1055.665039</ele>
        <time>2012-02-12T12:31:39Z</time>
      </trkpt>
      <trkpt lat="43.04682" lon="-0.4675">
        <ele>1051.338867</ele>
        <time>2012-02-12T12:31:53Z</time>
      </trkpt>
      <trkpt lat="43.04683" lon="-0.4675">
        <ele>1051.338867</ele>
        <time>2012-02-12T12:31:54Z</time>
      </trkpt>
      <trkpt lat="43.04696" lon="-0.4675">
        <ele>1047.974365</ele>
        <time>2012-02-12T12:32:04Z</time>
      </trkpt>
      <trkpt lat="43.04704" lon="-0.46751">
        <ele>1047.012939</ele>
        <time>2012-02-12T12:32:10Z</time>
      </trkpt>
      <trkpt lat="43.04709" lon="-0.46752">
        <ele>1045.090332</ele>
        <time>2012-02-12T12:32:14Z</time>
      </trkpt>
      <trkpt lat="43.04721" lon="-0.46759">
        <ele>1042.206543</ele>
        <time>2012-02-12T12:32:23Z</time>
      </trkpt>
      <trkpt lat="43.04733" lon="-0.46769">
        <ele>1038.842041</ele>
        <time>2012-02-12T12:32:36Z</time>
      </trkpt>
      <trkpt lat="43.04741" lon="-0.46776">
        <ele>1035.477051</ele>
        <time>2012-02-12T12:32:51Z</time>
      </trkpt>
      <trkpt lat="43.04742" lon="-0.46775">
        <ele>1034.515869</ele>
        <time>2012-02-12T12:32:53Z</time>
      </trkpt>
      <trkpt lat="43.04751" lon="-0.46781">
        <ele>1032.112549</ele>
        <time>2012-02-12T12:33:03Z</time>
      </trkpt>
      <trkpt lat="43.04769" lon="-0.46788">
        <ele>1029.709229</ele>
        <time>2012-02-12T12:33:20Z</time>
      </trkpt>
      <trkpt lat="43.04784" lon="-0.4679">
        <ele>1026.825439</ele>
        <time>2012-02-12T12:33:34Z</time>
      </trkpt>
      <trkpt lat="43.048" lon="-0.46787">
        <ele>1023.941406</ele>
        <time>2012-02-12T12:33:48Z</time>
      </trkpt>
      <trkpt lat="43.0481" lon="-0.46785">
        <ele>1022.499512</ele>
        <time>2012-02-12T12:33:56Z</time>
      </trkpt>
      <trkpt lat="43.04828" lon="-0.46776">
        <ele>1020.576904</ele>
        <time>2012-02-12T12:34:11Z</time>
      </trkpt>
      <trkpt lat="43.04849" lon="-0.46767">
        <ele>1019.615479</ele>
        <time>2012-02-12T12:34:27Z</time>
      </trkpt>
      <trkpt lat="43.04864" lon="-0.46756">
        <ele>1016.250732</ele>
        <time>2012-02-12T12:34:42Z</time>
      </trkpt>
      <trkpt lat="43.04875" lon="-0.46741">
        <ele>1014.328125</ele>
        <time>2012-02-12T12:34:56Z</time>
      </trkpt>
      <trkpt lat="43.04886" lon="-0.46728">
        <ele>1011.444336</ele>
        <time>2012-02-12T12:35:10Z</time>
      </trkpt>
      <trkpt lat="43.04894" lon="-0.46723">
        <ele>1011.925049</ele>
        <time>2012-02-12T12:35:28Z</time>
      </trkpt>
      <trkpt lat="43.04905" lon="-0.46714">
        <ele>1012.405518</ele>
        <time>2012-02-12T12:36:06Z</time>
      </trkpt>
      <trkpt lat="43.04919" lon="-0.46708">
        <ele>1010.963623</ele>
        <time>2012-02-12T12:36:18Z</time>
      </trkpt>
      <trkpt lat="43.04933" lon="-0.46698">
        <ele>1007.599121</ele>
        <time>2012-02-12T12:36:31Z</time>
      </trkpt>
      <trkpt lat="43.04954" lon="-0.46689">
        <ele>1006.156982</ele>
        <time>2012-02-12T12:36:48Z</time>
      </trkpt>
      <trkpt lat="43.04967" lon="-0.46682">
        <ele>1004.715088</ele>
        <time>2012-02-12T12:36:58Z</time>
      </trkpt>
      <trkpt lat="43.04971" lon="-0.46678">
        <ele>1004.234619</ele>
        <time>2012-02-12T12:37:02Z</time>
      </trkpt>
      <trkpt lat="43.04981" lon="-0.46662">
        <ele>1002.311523</ele>
        <time>2012-02-12T12:37:17Z</time>
      </trkpt>
      <trkpt lat="43.04983" lon="-0.46656">
        <ele>1001.831055</ele>
        <time>2012-02-12T12:37:22Z</time>
      </trkpt>
      <trkpt lat="43.04984" lon="-0.46644">
        <ele>999.908447</ele>
        <time>2012-02-12T12:37:29Z</time>
      </trkpt>
      <trkpt lat="43.04984" lon="-0.46635">
        <ele>998.947021</ele>
        <time>2012-02-12T12:37:34Z</time>
      </trkpt>
      <trkpt lat="43.04984" lon="-0.46624">
        <ele>996.543945</ele>
        <time>2012-02-12T12:37:40Z</time>
      </trkpt>
      <trkpt lat="43.04988" lon="-0.46608">
        <ele>992.69873</ele>
        <time>2012-02-12T12:37:50Z</time>
      </trkpt>
      <trkpt lat="43.04988" lon="-0.46607">
        <ele>992.69873</ele>
        <time>2012-02-12T12:37:51Z</time>
      </trkpt>
      <trkpt lat="43.04988" lon="-0.46605">
        <ele>992.218018</ele>
        <time>2012-02-12T12:37:52Z</time>
      </trkpt>
      <trkpt lat="43.04988" lon="-0.46602">
        <ele>991.737305</ele>
        <time>2012-02-12T12:37:54Z</time>
      </trkpt>
      <trkpt lat="43.04992" lon="-0.46592">
        <ele>991.256592</ele>
        <time>2012-02-12T12:38:02Z</time>
      </trkpt>
      <trkpt lat="43.05005" lon="-0.46577">
        <ele>987.891846</ele>
        <time>2012-02-12T12:38:16Z</time>
      </trkpt>
      <trkpt lat="43.05012" lon="-0.46567">
        <ele>987.411133</ele>
        <time>2012-02-12T12:38:35Z</time>
      </trkpt>
      <trkpt lat="43.05014" lon="-0.4656">
        <ele>985.488525</ele>
        <time>2012-02-12T12:38:41Z</time>
      </trkpt>
      <trkpt lat="43.05016" lon="-0.46555">
        <ele>984.527344</ele>
        <time>2012-02-12T12:38:45Z</time>
      </trkpt>
      <trkpt lat="43.05017" lon="-0.46554">
        <ele>984.046631</ele>
        <time>2012-02-12T12:38:46Z</time>
      </trkpt>
      <trkpt lat="43.05021" lon="-0.46545">
        <ele>982.604736</ele>
        <time>2012-02-12T12:38:52Z</time>
      </trkpt>
      <trkpt lat="43.05023" lon="-0.46526">
        <ele>979.23999</ele>
        <time>2012-02-12T12:39:05Z</time>
      </trkpt>
      <trkpt lat="43.05025" lon="-0.46517">
        <ele>978.278809</ele>
        <time>2012-02-12T12:39:12Z</time>
      </trkpt>
      <trkpt lat="43.05027" lon="-0.46505">
        <ele>973.952881</ele>
        <time>2012-02-12T12:39:21Z</time>
      </trkpt>
      <trkpt lat="43.05027" lon="-0.46503">
        <ele>973.952881</ele>
        <time>2012-02-12T12:39:22Z</time>
      </trkpt>
      <trkpt lat="43.05027" lon="-0.465">
        <ele>972.991699</ele>
        <time>2012-02-12T12:39:24Z</time>
      </trkpt>
      <trkpt lat="43.05028" lon="-0.46486">
        <ele>970.107422</ele>
        <time>2012-02-12T12:39:32Z</time>
      </trkpt>
      <trkpt lat="43.05033" lon="-0.46462">
        <ele>968.665527</ele>
        <time>2012-02-12T12:39:46Z</time>
      </trkpt>
      <trkpt lat="43.05035" lon="-0.46458">
        <ele>968.184814</ele>
        <time>2012-02-12T12:39:49Z</time>
      </trkpt>
      <trkpt lat="43.05053" lon="-0.46453">
        <ele>965.301025</ele>
        <time>2012-02-12T12:40:03Z</time>
      </trkpt>
      <trkpt lat="43.0506" lon="-0.46458">
        <ele>961.936523</ele>
        <time>2012-02-12T12:40:09Z</time>
      </trkpt>
      <trkpt lat="43.05069" lon="-0.4647">
        <ele>959.05249</ele>
        <time>2012-02-12T12:40:22Z</time>
      </trkpt>
      <trkpt lat="43.05076" lon="-0.46479">
        <ele>955.687744</ele>
        <time>2012-02-12T12:40:33Z</time>
      </trkpt>
      <trkpt lat="43.05078" lon="-0.46484">
        <ele>953.765137</ele>
        <time>2012-02-12T12:40:38Z</time>
      </trkpt>
      <trkpt lat="43.05085" lon="-0.46491">
        <ele>950.881104</ele>
        <time>2012-02-12T12:40:48Z</time>
      </trkpt>
      <trkpt lat="43.05092" lon="-0.46495">
        <ele>947.516602</ele>
        <time>2012-02-12T12:40:56Z</time>
      </trkpt>
      <trkpt lat="43.05094" lon="-0.46496">
        <ele>947.035889</ele>
        <time>2012-02-12T12:40:58Z</time>
      </trkpt>
      <trkpt lat="43.05106" lon="-0.46501">
        <ele>943.671387</ele>
        <time>2012-02-12T12:41:11Z</time>
      </trkpt>
      <trkpt lat="43.05115" lon="-0.46505">
        <ele>940.306885</ele>
        <time>2012-02-12T12:41:22Z</time>
      </trkpt>
      <trkpt lat="43.05123" lon="-0.46509">
        <ele>938.384033</ele>
        <time>2012-02-12T12:41:33Z</time>
      </trkpt>
      <trkpt lat="43.05133" lon="-0.46502">
        <ele>934.538818</ele>
        <time>2012-02-12T12:41:43Z</time>
      </trkpt>
      <trkpt lat="43.05138" lon="-0.46497">
        <ele>934.538818</ele>
        <time>2012-02-12T12:41:48Z</time>
      </trkpt>
      <trkpt lat="43.05143" lon="-0.46496">
        <ele>931.174316</ele>
        <time>2012-02-12T12:41:53Z</time>
      </trkpt>
      <trkpt lat="43.05154" lon="-0.465">
        <ele>929.732178</ele>
        <time>2012-02-12T12:42:06Z</time>
      </trkpt>
      <trkpt lat="43.05164" lon="-0.46507">
        <ele>926.367676</ele>
        <time>2012-02-12T12:42:17Z</time>
      </trkpt>
      <trkpt lat="43.05171" lon="-0.4651">
        <ele>923.964111</ele>
        <time>2012-02-12T12:42:25Z</time>
      </trkpt>
      <trkpt lat="43.05187" lon="-0.46512">
        <ele>921.560791</ele>
        <time>2012-02-12T12:42:41Z</time>
      </trkpt>
      <trkpt lat="43.05193" lon="-0.46512">
        <ele>921.560791</ele>
        <time>2012-02-12T12:42:54Z</time>
      </trkpt>
      <trkpt lat="43.05198" lon="-0.46512">
        <ele>921.560791</ele>
        <time>2012-02-12T12:43:18Z</time>
      </trkpt>
      <trkpt lat="43.05211" lon="-0.46518">
        <ele>919.157715</ele>
        <time>2012-02-12T12:43:56Z</time>
      </trkpt>
      <trkpt lat="43.05222" lon="-0.46521">
        <ele>916.754395</ele>
        <time>2012-02-12T12:44:07Z</time>
      </trkpt>
      <trkpt lat="43.05237" lon="-0.46526">
        <ele>913.870361</ele>
        <time>2012-02-12T12:44:23Z</time>
      </trkpt>
      <trkpt lat="43.05261" lon="-0.46533">
        <ele>911.947998</ele>
        <time>2012-02-12T12:44:43Z</time>
      </trkpt>
      <trkpt lat="43.05278" lon="-0.46534">
        <ele>910.025146</ele>
        <time>2012-02-12T12:45:05Z</time>
      </trkpt>
      <trkpt lat="43.0529" lon="-0.46537">
        <ele>909.544678</ele>
        <time>2012-02-12T12:45:25Z</time>
      </trkpt>
      <trkpt lat="43.05316" lon="-0.46541">
        <ele>908.102783</ele>
        <time>2012-02-12T12:45:49Z</time>
      </trkpt>
      <trkpt lat="43.05347" lon="-0.46545">
        <ele>905.218506</ele>
        <time>2012-02-12T12:46:14Z</time>
      </trkpt>
      <trkpt lat="43.05373" lon="-0.46548">
        <ele>904.257324</ele>
        <time>2012-02-12T12:46:36Z</time>
      </trkpt>
      <trkpt lat="43.054" lon="-0.46551">
        <ele>902.815186</ele>
        <time>2012-02-12T12:46:59Z</time>
      </trkpt>
      <trkpt lat="43.0542" lon="-0.46547">
        <ele>901.373291</ele>
        <time>2012-02-12T12:47:17Z</time>
      </trkpt>
      <trkpt lat="43.05439" lon="-0.46535">
        <ele>900.412109</ele>
        <time>2012-02-12T12:47:36Z</time>
      </trkpt>
      <trkpt lat="43.05452" lon="-0.46523">
        <ele>899.450684</ele>
        <time>2012-02-12T12:47:50Z</time>
      </trkpt>
      <trkpt lat="43.05477" lon="-0.46504">
        <ele>896.566895</ele>
        <time>2012-02-12T12:48:13Z</time>
      </trkpt>
      <trkpt lat="43.05498" lon="-0.46491">
        <ele>894.163574</ele>
        <time>2012-02-12T12:48:32Z</time>
      </trkpt>
      <trkpt lat="43.05529" lon="-0.46483">
        <ele>892.72168</ele>
        <time>2012-02-12T12:48:56Z</time>
      </trkpt>
      <trkpt lat="43.05557" lon="-0.46477">
        <ele>891.279297</ele>
        <time>2012-02-12T12:49:19Z</time>
      </trkpt>
      <trkpt lat="43.05573" lon="-0.46471">
        <ele>889.837402</ele>
        <time>2012-02-12T12:49:35Z</time>
      </trkpt>
      <trkpt lat="43.05577" lon="-0.46469">
        <ele>888.876221</ele>
        <time>2012-02-12T12:49:39Z</time>
      </trkpt>
      <trkpt lat="43.05588" lon="-0.46461">
        <ele>888.876221</ele>
        <time>2012-02-12T12:49:49Z</time>
      </trkpt>
      <trkpt lat="43.05597" lon="-0.46454">
        <ele>888.395508</ele>
        <time>2012-02-12T12:50:01Z</time>
      </trkpt>
      <trkpt lat="43.05601" lon="-0.46459">
        <ele>888.876221</ele>
        <time>2012-02-12T12:50:24Z</time>
      </trkpt>
      <trkpt lat="43.056" lon="-0.4646">
        <ele>889.356689</ele>
        <time>2012-02-12T12:50:44Z</time>
      </trkpt>
      <trkpt lat="43.05603" lon="-0.46456">
        <ele>889.356689</ele>
        <time>2012-02-12T12:51:13Z</time>
      </trkpt>
      <trkpt lat="43.05606" lon="-0.4645">
        <ele>890.318115</ele>
        <time>2012-02-12T12:51:32Z</time>
      </trkpt>
      <trkpt lat="43.05617" lon="-0.46436">
        <ele>888.876221</ele>
        <time>2012-02-12T12:51:48Z</time>
      </trkpt>
      <trkpt lat="43.05634" lon="-0.46419">
        <ele>885.511475</ele>
        <time>2012-02-12T12:52:06Z</time>
      </trkpt>
      <trkpt lat="43.05658" lon="-0.464">
        <ele>882.627686</ele>
        <time>2012-02-12T12:52:28Z</time>
      </trkpt>
      <trkpt lat="43.05675" lon="-0.4639">
        <ele>880.705078</ele>
        <time>2012-02-12T12:52:45Z</time>
      </trkpt>
      <trkpt lat="43.05693" lon="-0.46382">
        <ele>879.262939</ele>
        <time>2012-02-12T12:53:01Z</time>
      </trkpt>
      <trkpt lat="43.05717" lon="-0.46375">
        <ele>877.821045</ele>
        <time>2012-02-12T12:53:17Z</time>
      </trkpt>
      <trkpt lat="43.05734" lon="-0.46372">
        <ele>876.37915</ele>
        <time>2012-02-12T12:53:32Z</time>
      </trkpt>
      <trkpt lat="43.05757" lon="-0.46369">
        <ele>874.937012</ele>
        <time>2012-02-12T12:53:52Z</time>
      </trkpt>
      <trkpt lat="43.05776" lon="-0.46355">
        <ele>873.014404</ele>
        <time>2012-02-12T12:54:11Z</time>
      </trkpt>
      <trkpt lat="43.05795" lon="-0.46343">
        <ele>870.611084</ele>
        <time>2012-02-12T12:54:28Z</time>
      </trkpt>
      <trkpt lat="43.0581" lon="-0.4634">
        <ele>867.246582</ele>
        <time>2012-02-12T12:54:40Z</time>
      </trkpt>
      <trkpt lat="43.05832" lon="-0.46331">
        <ele>864.843262</ele>
        <time>2012-02-12T12:54:59Z</time>
      </trkpt>
      <trkpt lat="43.05854" lon="-0.46321">
        <ele>862.439941</ele>
        <time>2012-02-12T12:55:19Z</time>
      </trkpt>
      <trkpt lat="43.05856" lon="-0.46321">
        <ele>861.959473</ele>
        <time>2012-02-12T12:55:20Z</time>
      </trkpt>
      <trkpt lat="43.05863" lon="-0.46328">
        <ele>862.920654</ele>
        <time>2012-02-12T12:55:38Z</time>
      </trkpt>
      <trkpt lat="43.05864" lon="-0.46333">
        <ele>864.362549</ele>
        <time>2012-02-12T12:56:00Z</time>
      </trkpt>
      <trkpt lat="43.05868" lon="-0.46341">
        <ele>865.804688</ele>
        <time>2012-02-12T12:56:15Z</time>
      </trkpt>
      <trkpt lat="43.05873" lon="-0.46349">
        <ele>867.727051</ele>
        <time>2012-02-12T12:56:42Z</time>
      </trkpt>
      <trkpt lat="43.05873" lon="-0.46351">
        <ele>868.207764</ele>
        <time>2012-02-12T12:56:43Z</time>
      </trkpt>
      <trkpt lat="43.05883" lon="-0.46368">
        <ele>869.649902</ele>
        <time>2012-02-12T12:56:55Z</time>
      </trkpt>
      <trkpt lat="43.05886" lon="-0.46373">
        <ele>869.649902</ele>
        <time>2012-02-12T12:56:58Z</time>
      </trkpt>
      <trkpt lat="43.05897" lon="-0.46398">
        <ele>870.611084</ele>
        <time>2012-02-12T12:57:14Z</time>
      </trkpt>
      <trkpt lat="43.0591" lon="-0.46424">
        <ele>873.014404</ele>
        <time>2012-02-12T12:57:32Z</time>
      </trkpt>
      <trkpt lat="43.05921" lon="-0.46452">
        <ele>874.937012</ele>
        <time>2012-02-12T12:57:49Z</time>
      </trkpt>
      <trkpt lat="43.05924" lon="-0.46461">
        <ele>877.821045</ele>
        <time>2012-02-12T12:57:55Z</time>
      </trkpt>
      <trkpt lat="43.05931" lon="-0.46477">
        <ele>881.185791</ele>
        <time>2012-02-12T12:58:05Z</time>
      </trkpt>
      <trkpt lat="43.05943" lon="-0.46498">
        <ele>883.108154</ele>
        <time>2012-02-12T12:58:22Z</time>
      </trkpt>
      <trkpt lat="43.05953" lon="-0.46513">
        <ele>886.953369</ele>
        <time>2012-02-12T12:58:38Z</time>
      </trkpt>
      <trkpt lat="43.05961" lon="-0.46523">
        <ele>888.395508</ele>
        <time>2012-02-12T12:58:49Z</time>
      </trkpt>
      <trkpt lat="43.05975" lon="-0.46536">
        <ele>888.876221</ele>
        <time>2012-02-12T12:59:08Z</time>
      </trkpt>
      <trkpt lat="43.05995" lon="-0.46549">
        <ele>888.876221</ele>
        <time>2012-02-12T12:59:25Z</time>
      </trkpt>
      <trkpt lat="43.06017" lon="-0.4656">
        <ele>891.279297</ele>
        <time>2012-02-12T12:59:45Z</time>
      </trkpt>
      <trkpt lat="43.06038" lon="-0.46559">
        <ele>889.356689</ele>
        <time>2012-02-12T13:00:02Z</time>
      </trkpt>
      <trkpt lat="43.06062" lon="-0.46562">
        <ele>886.953369</ele>
        <time>2012-02-12T13:00:21Z</time>
      </trkpt>
      <trkpt lat="43.0608" lon="-0.4657">
        <ele>885.511475</ele>
        <time>2012-02-12T13:00:37Z</time>
      </trkpt>
      <trkpt lat="43.06095" lon="-0.46585">
        <ele>883.588867</ele>
        <time>2012-02-12T13:00:51Z</time>
      </trkpt>
      <trkpt lat="43.06113" lon="-0.46594">
        <ele>883.108154</ele>
        <time>2012-02-12T13:01:06Z</time>
      </trkpt>
      <trkpt lat="43.0613" lon="-0.46607">
        <ele>882.146973</ele>
        <time>2012-02-12T13:01:22Z</time>
      </trkpt>
      <trkpt lat="43.06145" lon="-0.46614">
        <ele>881.185791</ele>
        <time>2012-02-12T13:01:34Z</time>
      </trkpt>
      <trkpt lat="43.06154" lon="-0.46615">
        <ele>880.705078</ele>
        <time>2012-02-12T13:01:40Z</time>
      </trkpt>
      <trkpt lat="43.0617" lon="-0.46617">
        <ele>881.66626</ele>
        <time>2012-02-12T13:01:53Z</time>
      </trkpt>
      <trkpt lat="43.06191" lon="-0.46613">
        <ele>880.224365</ele>
        <time>2012-02-12T13:02:09Z</time>
      </trkpt>
      <trkpt lat="43.06203" lon="-0.46607">
        <ele>880.705078</ele>
        <time>2012-02-12T13:02:20Z</time>
      </trkpt>
      <trkpt lat="43.06226" lon="-0.46598">
        <ele>879.743652</ele>
        <time>2012-02-12T13:02:37Z</time>
      </trkpt>
      <trkpt lat="43.06245" lon="-0.46589">
        <ele>879.262939</ele>
        <time>2012-02-12T13:02:53Z</time>
      </trkpt>
      <trkpt lat="43.0626" lon="-0.46578">
        <ele>878.782471</ele>
        <time>2012-02-12T13:03:07Z</time>
      </trkpt>
      <trkpt lat="43.06285" lon="-0.4656">
        <ele>877.821045</ele>
        <time>2012-02-12T13:03:28Z</time>
      </trkpt>
      <trkpt lat="43.06308" lon="-0.46548">
        <ele>877.821045</ele>
        <time>2012-02-12T13:03:48Z</time>
      </trkpt>
      <trkpt lat="43.06332" lon="-0.46537">
        <ele>878.301758</ele>
        <time>2012-02-12T13:04:07Z</time>
      </trkpt>
      <trkpt lat="43.06358" lon="-0.46529">
        <ele>879.262939</ele>
        <time>2012-02-12T13:04:28Z</time>
      </trkpt>
      <trkpt lat="43.06375" lon="-0.46525">
        <ele>880.705078</ele>
        <time>2012-02-12T13:04:45Z</time>
      </trkpt>
      <trkpt lat="43.06378" lon="-0.46525">
        <ele>879.743652</ele>
        <time>2012-02-12T13:05:02Z</time>
      </trkpt>
      <trkpt lat="43.06393" lon="-0.46521">
        <ele>881.185791</ele>
        <time>2012-02-12T13:05:16Z</time>
      </trkpt>
      <trkpt lat="43.06413" lon="-0.46509">
        <ele>880.705078</ele>
        <time>2012-02-12T13:05:34Z</time>
      </trkpt>
      <trkpt lat="43.0644" lon="-0.46495">
        <ele>880.705078</ele>
        <time>2012-02-12T13:05:56Z</time>
      </trkpt>
      <trkpt lat="43.06471" lon="-0.4649">
        <ele>879.262939</ele>
        <time>2012-02-12T13:06:18Z</time>
      </trkpt>
      <trkpt lat="43.06503" lon="-0.46492">
        <ele>879.262939</ele>
        <time>2012-02-12T13:06:41Z</time>
      </trkpt>
      <trkpt lat="43.06519" lon="-0.46515">
        <ele>879.262939</ele>
        <time>2012-02-12T13:06:59Z</time>
      </trkpt>
      <trkpt lat="43.06525" lon="-0.4655">
        <ele>876.37915</ele>
        <time>2012-02-12T13:07:19Z</time>
      </trkpt>
      <trkpt lat="43.06527" lon="-0.46585">
        <ele>876.859863</ele>
        <time>2012-02-12T13:07:39Z</time>
      </trkpt>
      <trkpt lat="43.06525" lon="-0.46614">
        <ele>876.37915</ele>
        <time>2012-02-12T13:07:57Z</time>
      </trkpt>
      <trkpt lat="43.06523" lon="-0.46653">
        <ele>875.898193</ele>
        <time>2012-02-12T13:08:20Z</time>
      </trkpt>
      <trkpt lat="43.06522" lon="-0.46687">
        <ele>874.937012</ele>
        <time>2012-02-12T13:08:40Z</time>
      </trkpt>
      <trkpt lat="43.06522" lon="-0.46721">
        <ele>872.533691</ele>
        <time>2012-02-12T13:09:01Z</time>
      </trkpt>
      <trkpt lat="43.0652" lon="-0.46758">
        <ele>870.611084</ele>
        <time>2012-02-12T13:09:23Z</time>
      </trkpt>
      <trkpt lat="43.0652" lon="-0.46759">
        <ele>870.611084</ele>
        <time>2012-02-12T13:09:24Z</time>
      </trkpt>
      <trkpt lat="43.06521" lon="-0.46769">
        <ele>873.495117</ele>
        <time>2012-02-12T13:09:30Z</time>
      </trkpt>
      <trkpt lat="43.0651" lon="-0.46793">
        <ele>875.898193</ele>
        <time>2012-02-12T13:09:48Z</time>
      </trkpt>
      <trkpt lat="43.06505" lon="-0.46826">
        <ele>874.937012</ele>
        <time>2012-02-12T13:10:07Z</time>
      </trkpt>
      <trkpt lat="43.06495" lon="-0.46853">
        <ele>872.533691</ele>
        <time>2012-02-12T13:10:24Z</time>
      </trkpt>
      <trkpt lat="43.06488" lon="-0.46896">
        <ele>871.572266</ele>
        <time>2012-02-12T13:10:48Z</time>
      </trkpt>
      <trkpt lat="43.06485" lon="-0.46941">
        <ele>871.572266</ele>
        <time>2012-02-12T13:11:13Z</time>
      </trkpt>
      <trkpt lat="43.06486" lon="-0.46949">
        <ele>870.130371</ele>
        <time>2012-02-12T13:11:17Z</time>
      </trkpt>
      <trkpt lat="43.06485" lon="-0.46995">
        <ele>870.611084</ele>
        <time>2012-02-12T13:11:42Z</time>
      </trkpt>
      <trkpt lat="43.0648" lon="-0.47029">
        <ele>871.572266</ele>
        <time>2012-02-12T13:12:02Z</time>
      </trkpt>
      <trkpt lat="43.06482" lon="-0.47062">
        <ele>871.572266</ele>
        <time>2012-02-12T13:12:22Z</time>
      </trkpt>
      <trkpt lat="43.06483" lon="-0.47067">
        <ele>872.052979</ele>
        <time>2012-02-12T13:12:26Z</time>
      </trkpt>
      <trkpt lat="43.0648" lon="-0.47073">
        <ele>873.014404</ele>
        <time>2012-02-12T13:12:31Z</time>
      </trkpt>
      <trkpt lat="43.0647" lon="-0.4709">
        <ele>874.456299</ele>
        <time>2012-02-12T13:12:47Z</time>
      </trkpt>
      <trkpt lat="43.06473" lon="-0.47092">
        <ele>872.533691</ele>
        <time>2012-02-12T13:12:54Z</time>
      </trkpt>
      <trkpt lat="43.06475" lon="-0.47094">
        <ele>872.533691</ele>
        <time>2012-02-12T13:12:57Z</time>
      </trkpt>
      <trkpt lat="43.06479" lon="-0.47098">
        <ele>871.572266</ele>
        <time>2012-02-12T13:13:14Z</time>
      </trkpt>
      <trkpt lat="43.06479" lon="-0.47099">
        <ele>873.495117</ele>
        <time>2012-02-12T13:13:30Z</time>
      </trkpt>
      <trkpt lat="43.06479" lon="-0.47098">
        <ele>874.456299</ele>
        <time>2012-02-12T13:13:36Z</time>
      </trkpt>
    </trkseg>
  </trk>
</gpx>